<?xml version="1.0" encoding="UTF-8" standalone="no" ?>
<gpx xmlns="http://www.topografix.com/GPX/1/1" xmlns:xsi="http://www.w3.org/2001/XMLSchema-instance" xsi:schemaLocation="http://www.topografix.com/GPX/1/1 http://www.topografix.com/GPX/1/1/gpx.xsd" version="1.1" creator="VisuGPX - https://www.visugpx.com">
  <metadata>
    <name>Dahouët Pléneuf-Val-André</name>
    <desc><![CDATA[Dahouët Pléneuf-Val-André]]></desc>
  </metadata>
  <trk>
    <name><![CDATA[AVR-27-15 12:40:51]]></name>
    <trkseg>
      <trkpt lat="48.57511" lon="-2.56714">
        <ele>14.08</ele>
        <time>2015-04-27T07:31:28Z</time>
      </trkpt>
      <trkpt lat="48.57511" lon="-2.56713">
        <ele>12.63</ele>
        <time>2015-04-27T07:32:49Z</time>
      </trkpt>
      <trkpt lat="48.57511" lon="-2.56713">
        <ele>15.04</ele>
        <time>2015-04-27T07:32:58Z</time>
      </trkpt>
      <trkpt lat="48.57511" lon="-2.56713">
        <ele>14.08</ele>
        <time>2015-04-27T07:32:59Z</time>
      </trkpt>
      <trkpt lat="48.57511" lon="-2.56713">
        <ele>13.12</ele>
        <time>2015-04-27T07:33:00Z</time>
      </trkpt>
      <trkpt lat="48.57497" lon="-2.56709">
        <ele>12.63</ele>
        <time>2015-04-27T07:33:02Z</time>
      </trkpt>
      <trkpt lat="48.57509" lon="-2.56713">
        <ele>14.08</ele>
        <time>2015-04-27T07:33:47Z</time>
      </trkpt>
      <trkpt lat="48.57509" lon="-2.56714">
        <ele>9.27</ele>
        <time>2015-04-27T07:33:54Z</time>
      </trkpt>
      <trkpt lat="48.57508" lon="-2.56714">
        <ele>15.04</ele>
        <time>2015-04-27T07:33:55Z</time>
      </trkpt>
      <trkpt lat="48.57508" lon="-2.56714">
        <ele>11.19</ele>
        <time>2015-04-27T07:34:03Z</time>
      </trkpt>
      <trkpt lat="48.57508" lon="-2.56715">
        <ele>14.56</ele>
        <time>2015-04-27T07:34:05Z</time>
      </trkpt>
      <trkpt lat="48.57511" lon="-2.56718">
        <ele>11.19</ele>
        <time>2015-04-27T07:34:16Z</time>
      </trkpt>
      <trkpt lat="48.57511" lon="-2.56718">
        <ele>13.6</ele>
        <time>2015-04-27T07:34:17Z</time>
      </trkpt>
      <trkpt lat="48.57511" lon="-2.56718">
        <ele>14.08</ele>
        <time>2015-04-27T07:34:19Z</time>
      </trkpt>
      <trkpt lat="48.5751" lon="-2.56715">
        <ele>14.56</ele>
        <time>2015-04-27T07:35:12Z</time>
      </trkpt>
      <trkpt lat="48.57517" lon="-2.56715">
        <ele>14.56</ele>
        <time>2015-04-27T07:35:32Z</time>
      </trkpt>
      <trkpt lat="48.57529" lon="-2.56706">
        <ele>14.08</ele>
        <time>2015-04-27T07:35:49Z</time>
      </trkpt>
      <trkpt lat="48.57536" lon="-2.56701">
        <ele>14.56</ele>
        <time>2015-04-27T07:35:57Z</time>
      </trkpt>
      <trkpt lat="48.57551" lon="-2.56689">
        <ele>14.08</ele>
        <time>2015-04-27T07:36:16Z</time>
      </trkpt>
      <trkpt lat="48.57561" lon="-2.56679">
        <ele>15.04</ele>
        <time>2015-04-27T07:36:27Z</time>
      </trkpt>
      <trkpt lat="48.57565" lon="-2.56674">
        <ele>15.04</ele>
        <time>2015-04-27T07:36:32Z</time>
      </trkpt>
      <trkpt lat="48.57564" lon="-2.56663">
        <ele>16</ele>
        <time>2015-04-27T07:36:40Z</time>
      </trkpt>
      <trkpt lat="48.5756" lon="-2.56646">
        <ele>15.52</ele>
        <time>2015-04-27T07:36:51Z</time>
      </trkpt>
      <trkpt lat="48.57555" lon="-2.56628">
        <ele>15.52</ele>
        <time>2015-04-27T07:37:03Z</time>
      </trkpt>
      <trkpt lat="48.57553" lon="-2.56624">
        <ele>16</ele>
        <time>2015-04-27T07:37:06Z</time>
      </trkpt>
      <trkpt lat="48.57551" lon="-2.56613">
        <ele>15.52</ele>
        <time>2015-04-27T07:37:16Z</time>
      </trkpt>
      <trkpt lat="48.5755" lon="-2.56606">
        <ele>15.52</ele>
        <time>2015-04-27T07:37:20Z</time>
      </trkpt>
      <trkpt lat="48.57551" lon="-2.56586">
        <ele>16</ele>
        <time>2015-04-27T07:37:31Z</time>
      </trkpt>
      <trkpt lat="48.57551" lon="-2.56582">
        <ele>15.04</ele>
        <time>2015-04-27T07:37:33Z</time>
      </trkpt>
      <trkpt lat="48.57557" lon="-2.56545">
        <ele>16.48</ele>
        <time>2015-04-27T07:37:54Z</time>
      </trkpt>
      <trkpt lat="48.57567" lon="-2.56543">
        <ele>16</ele>
        <time>2015-04-27T07:38:07Z</time>
      </trkpt>
      <trkpt lat="48.57571" lon="-2.56521">
        <ele>15.52</ele>
        <time>2015-04-27T07:38:22Z</time>
      </trkpt>
      <trkpt lat="48.57572" lon="-2.56514">
        <ele>16</ele>
        <time>2015-04-27T07:38:27Z</time>
      </trkpt>
      <trkpt lat="48.57576" lon="-2.5649">
        <ele>16.48</ele>
        <time>2015-04-27T07:38:41Z</time>
      </trkpt>
      <trkpt lat="48.57586" lon="-2.56455">
        <ele>16.48</ele>
        <time>2015-04-27T07:39:02Z</time>
      </trkpt>
      <trkpt lat="48.57594" lon="-2.56426">
        <ele>16</ele>
        <time>2015-04-27T07:39:21Z</time>
      </trkpt>
      <trkpt lat="48.57601" lon="-2.56395">
        <ele>16.48</ele>
        <time>2015-04-27T07:39:42Z</time>
      </trkpt>
      <trkpt lat="48.57604" lon="-2.56386">
        <ele>15.52</ele>
        <time>2015-04-27T07:39:48Z</time>
      </trkpt>
      <trkpt lat="48.57612" lon="-2.56373">
        <ele>16</ele>
        <time>2015-04-27T07:40:02Z</time>
      </trkpt>
      <trkpt lat="48.57618" lon="-2.5637">
        <ele>16.48</ele>
        <time>2015-04-27T07:40:09Z</time>
      </trkpt>
      <trkpt lat="48.57626" lon="-2.56372">
        <ele>15.52</ele>
        <time>2015-04-27T07:40:17Z</time>
      </trkpt>
      <trkpt lat="48.5763" lon="-2.56374">
        <ele>16</ele>
        <time>2015-04-27T07:40:21Z</time>
      </trkpt>
      <trkpt lat="48.57655" lon="-2.56385">
        <ele>16</ele>
        <time>2015-04-27T07:40:43Z</time>
      </trkpt>
      <trkpt lat="48.57674" lon="-2.56394">
        <ele>16</ele>
        <time>2015-04-27T07:41:01Z</time>
      </trkpt>
      <trkpt lat="48.57682" lon="-2.56399">
        <ele>16</ele>
        <time>2015-04-27T07:41:09Z</time>
      </trkpt>
      <trkpt lat="48.57686" lon="-2.56396">
        <ele>15.52</ele>
        <time>2015-04-27T07:41:13Z</time>
      </trkpt>
      <trkpt lat="48.57703" lon="-2.56406">
        <ele>16</ele>
        <time>2015-04-27T07:41:34Z</time>
      </trkpt>
      <trkpt lat="48.57728" lon="-2.56424">
        <ele>16.48</ele>
        <time>2015-04-27T07:41:56Z</time>
      </trkpt>
      <trkpt lat="48.57748" lon="-2.56433">
        <ele>16.48</ele>
        <time>2015-04-27T07:42:15Z</time>
      </trkpt>
      <trkpt lat="48.57749" lon="-2.56434">
        <ele>16.96</ele>
        <time>2015-04-27T07:42:17Z</time>
      </trkpt>
      <trkpt lat="48.57755" lon="-2.56432">
        <ele>16.48</ele>
        <time>2015-04-27T07:42:22Z</time>
      </trkpt>
      <trkpt lat="48.57773" lon="-2.56407">
        <ele>16.96</ele>
        <time>2015-04-27T07:42:44Z</time>
      </trkpt>
      <trkpt lat="48.57776" lon="-2.56402">
        <ele>15.52</ele>
        <time>2015-04-27T07:42:48Z</time>
      </trkpt>
      <trkpt lat="48.57793" lon="-2.56375">
        <ele>15.04</ele>
        <time>2015-04-27T07:43:09Z</time>
      </trkpt>
      <trkpt lat="48.5781" lon="-2.56349">
        <ele>14.56</ele>
        <time>2015-04-27T07:43:30Z</time>
      </trkpt>
      <trkpt lat="48.57823" lon="-2.56339">
        <ele>15.52</ele>
        <time>2015-04-27T07:43:49Z</time>
      </trkpt>
      <trkpt lat="48.57829" lon="-2.56332">
        <ele>15.04</ele>
        <time>2015-04-27T07:43:56Z</time>
      </trkpt>
      <trkpt lat="48.57833" lon="-2.56328">
        <ele>14.56</ele>
        <time>2015-04-27T07:44:00Z</time>
      </trkpt>
      <trkpt lat="48.57841" lon="-2.5632">
        <ele>15.04</ele>
        <time>2015-04-27T07:44:09Z</time>
      </trkpt>
      <trkpt lat="48.57843" lon="-2.56319">
        <ele>15.52</ele>
        <time>2015-04-27T07:44:11Z</time>
      </trkpt>
      <trkpt lat="48.57864" lon="-2.563">
        <ele>15.52</ele>
        <time>2015-04-27T07:44:32Z</time>
      </trkpt>
      <trkpt lat="48.57889" lon="-2.56295">
        <ele>16.48</ele>
        <time>2015-04-27T07:44:54Z</time>
      </trkpt>
      <trkpt lat="48.57897" lon="-2.56294">
        <ele>15.52</ele>
        <time>2015-04-27T07:45:01Z</time>
      </trkpt>
      <trkpt lat="48.57898" lon="-2.56296">
        <ele>15.52</ele>
        <time>2015-04-27T07:45:03Z</time>
      </trkpt>
      <trkpt lat="48.57898" lon="-2.56308">
        <ele>15.52</ele>
        <time>2015-04-27T07:45:11Z</time>
      </trkpt>
      <trkpt lat="48.57894" lon="-2.56317">
        <ele>16</ele>
        <time>2015-04-27T07:45:17Z</time>
      </trkpt>
      <trkpt lat="48.57886" lon="-2.56348">
        <ele>14.56</ele>
        <time>2015-04-27T07:45:36Z</time>
      </trkpt>
      <trkpt lat="48.57885" lon="-2.5635">
        <ele>14.56</ele>
        <time>2015-04-27T07:45:37Z</time>
      </trkpt>
      <trkpt lat="48.5788" lon="-2.56365">
        <ele>14.56</ele>
        <time>2015-04-27T07:45:47Z</time>
      </trkpt>
      <trkpt lat="48.5788" lon="-2.56368">
        <ele>14.56</ele>
        <time>2015-04-27T07:45:49Z</time>
      </trkpt>
      <trkpt lat="48.57876" lon="-2.56374">
        <ele>14.56</ele>
        <time>2015-04-27T07:45:53Z</time>
      </trkpt>
      <trkpt lat="48.57869" lon="-2.56403">
        <ele>15.04</ele>
        <time>2015-04-27T07:46:10Z</time>
      </trkpt>
      <trkpt lat="48.57867" lon="-2.56409">
        <ele>8.31</ele>
        <time>2015-04-27T07:46:14Z</time>
      </trkpt>
      <trkpt lat="48.57867" lon="-2.5641">
        <ele>15.52</ele>
        <time>2015-04-27T07:46:15Z</time>
      </trkpt>
      <trkpt lat="48.57858" lon="-2.56449">
        <ele>14.56</ele>
        <time>2015-04-27T07:46:38Z</time>
      </trkpt>
      <trkpt lat="48.57856" lon="-2.56455">
        <ele>14.08</ele>
        <time>2015-04-27T07:46:42Z</time>
      </trkpt>
      <trkpt lat="48.5785" lon="-2.56465">
        <ele>14.08</ele>
        <time>2015-04-27T07:46:50Z</time>
      </trkpt>
      <trkpt lat="48.57848" lon="-2.56466">
        <ele>15.04</ele>
        <time>2015-04-27T07:46:52Z</time>
      </trkpt>
      <trkpt lat="48.57846" lon="-2.56469">
        <ele>14.56</ele>
        <time>2015-04-27T07:46:54Z</time>
      </trkpt>
      <trkpt lat="48.5784" lon="-2.56486">
        <ele>14.56</ele>
        <time>2015-04-27T07:47:05Z</time>
      </trkpt>
      <trkpt lat="48.57834" lon="-2.56509">
        <ele>14.56</ele>
        <time>2015-04-27T07:47:18Z</time>
      </trkpt>
      <trkpt lat="48.5782" lon="-2.56542">
        <ele>14.08</ele>
        <time>2015-04-27T07:47:39Z</time>
      </trkpt>
      <trkpt lat="48.5782" lon="-2.56551">
        <ele>14.08</ele>
        <time>2015-04-27T07:47:45Z</time>
      </trkpt>
      <trkpt lat="48.57821" lon="-2.56558">
        <ele>14.08</ele>
        <time>2015-04-27T07:48:15Z</time>
      </trkpt>
      <trkpt lat="48.57819" lon="-2.56569">
        <ele>14.08</ele>
        <time>2015-04-27T07:48:21Z</time>
      </trkpt>
      <trkpt lat="48.57811" lon="-2.56599">
        <ele>14.56</ele>
        <time>2015-04-27T07:48:37Z</time>
      </trkpt>
      <trkpt lat="48.57808" lon="-2.5661">
        <ele>14.56</ele>
        <time>2015-04-27T07:48:43Z</time>
      </trkpt>
      <trkpt lat="48.57806" lon="-2.56626">
        <ele>14.08</ele>
        <time>2015-04-27T07:48:51Z</time>
      </trkpt>
      <trkpt lat="48.57805" lon="-2.56648">
        <ele>14.08</ele>
        <time>2015-04-27T07:49:03Z</time>
      </trkpt>
      <trkpt lat="48.57807" lon="-2.56658">
        <ele>14.08</ele>
        <time>2015-04-27T07:49:10Z</time>
      </trkpt>
      <trkpt lat="48.57818" lon="-2.56693">
        <ele>13.12</ele>
        <time>2015-04-27T07:49:30Z</time>
      </trkpt>
      <trkpt lat="48.57826" lon="-2.56724">
        <ele>13.6</ele>
        <time>2015-04-27T07:49:46Z</time>
      </trkpt>
      <trkpt lat="48.57836" lon="-2.56741">
        <ele>14.08</ele>
        <time>2015-04-27T07:49:58Z</time>
      </trkpt>
      <trkpt lat="48.5784" lon="-2.56754">
        <ele>13.6</ele>
        <time>2015-04-27T07:50:10Z</time>
      </trkpt>
      <trkpt lat="48.57846" lon="-2.56762">
        <ele>14.08</ele>
        <time>2015-04-27T07:50:16Z</time>
      </trkpt>
      <trkpt lat="48.57848" lon="-2.56767">
        <ele>14.08</ele>
        <time>2015-04-27T07:50:19Z</time>
      </trkpt>
      <trkpt lat="48.57853" lon="-2.56774">
        <ele>14.08</ele>
        <time>2015-04-27T07:50:24Z</time>
      </trkpt>
      <trkpt lat="48.57865" lon="-2.56797">
        <ele>13.12</ele>
        <time>2015-04-27T07:50:39Z</time>
      </trkpt>
      <trkpt lat="48.5787" lon="-2.56807">
        <ele>13.6</ele>
        <time>2015-04-27T07:50:45Z</time>
      </trkpt>
      <trkpt lat="48.57873" lon="-2.56817">
        <ele>13.6</ele>
        <time>2015-04-27T07:50:50Z</time>
      </trkpt>
      <trkpt lat="48.57875" lon="-2.56822">
        <ele>13.6</ele>
        <time>2015-04-27T07:50:53Z</time>
      </trkpt>
      <trkpt lat="48.57877" lon="-2.56833">
        <ele>14.08</ele>
        <time>2015-04-27T07:50:58Z</time>
      </trkpt>
      <trkpt lat="48.57879" lon="-2.56839">
        <ele>13.6</ele>
        <time>2015-04-27T07:51:02Z</time>
      </trkpt>
      <trkpt lat="48.57883" lon="-2.56859">
        <ele>13.6</ele>
        <time>2015-04-27T07:51:13Z</time>
      </trkpt>
      <trkpt lat="48.57884" lon="-2.56862">
        <ele>14.08</ele>
        <time>2015-04-27T07:51:15Z</time>
      </trkpt>
      <trkpt lat="48.57885" lon="-2.5687">
        <ele>14.08</ele>
        <time>2015-04-27T07:51:20Z</time>
      </trkpt>
      <trkpt lat="48.57889" lon="-2.56894">
        <ele>14.08</ele>
        <time>2015-04-27T07:51:44Z</time>
      </trkpt>
      <trkpt lat="48.57889" lon="-2.56897">
        <ele>14.08</ele>
        <time>2015-04-27T07:51:46Z</time>
      </trkpt>
      <trkpt lat="48.57889" lon="-2.56912">
        <ele>17.44</ele>
        <time>2015-04-27T07:52:01Z</time>
      </trkpt>
      <trkpt lat="48.57892" lon="-2.56926">
        <ele>18.88</ele>
        <time>2015-04-27T07:52:16Z</time>
      </trkpt>
      <trkpt lat="48.57895" lon="-2.56938">
        <ele>21.29</ele>
        <time>2015-04-27T07:52:34Z</time>
      </trkpt>
      <trkpt lat="48.57897" lon="-2.56941">
        <ele>21.77</ele>
        <time>2015-04-27T07:52:52Z</time>
      </trkpt>
      <trkpt lat="48.57898" lon="-2.56941">
        <ele>21.77</ele>
        <time>2015-04-27T07:53:18Z</time>
      </trkpt>
      <trkpt lat="48.57899" lon="-2.5694">
        <ele>20.81</ele>
        <time>2015-04-27T07:53:44Z</time>
      </trkpt>
      <trkpt lat="48.57901" lon="-2.56937">
        <ele>21.77</ele>
        <time>2015-04-27T07:53:47Z</time>
      </trkpt>
      <trkpt lat="48.57909" lon="-2.56928">
        <ele>22.25</ele>
        <time>2015-04-27T07:53:59Z</time>
      </trkpt>
      <trkpt lat="48.57913" lon="-2.56926">
        <ele>22.25</ele>
        <time>2015-04-27T07:54:02Z</time>
      </trkpt>
      <trkpt lat="48.57925" lon="-2.56932">
        <ele>23.21</ele>
        <time>2015-04-27T07:54:14Z</time>
      </trkpt>
      <trkpt lat="48.5794" lon="-2.56937">
        <ele>25.13</ele>
        <time>2015-04-27T07:54:31Z</time>
      </trkpt>
      <trkpt lat="48.57946" lon="-2.56941">
        <ele>26.57</ele>
        <time>2015-04-27T07:54:40Z</time>
      </trkpt>
      <trkpt lat="48.57952" lon="-2.56963">
        <ele>25.61</ele>
        <time>2015-04-27T07:54:59Z</time>
      </trkpt>
      <trkpt lat="48.57952" lon="-2.56962">
        <ele>24.17</ele>
        <time>2015-04-27T07:55:13Z</time>
      </trkpt>
      <trkpt lat="48.57951" lon="-2.5696">
        <ele>23.69</ele>
        <time>2015-04-27T07:55:15Z</time>
      </trkpt>
      <trkpt lat="48.57949" lon="-2.56951">
        <ele>25.13</ele>
        <time>2015-04-27T07:55:20Z</time>
      </trkpt>
      <trkpt lat="48.57945" lon="-2.56937">
        <ele>26.57</ele>
        <time>2015-04-27T07:55:28Z</time>
      </trkpt>
      <trkpt lat="48.57944" lon="-2.56923">
        <ele>30.9</ele>
        <time>2015-04-27T07:55:37Z</time>
      </trkpt>
      <trkpt lat="48.57945" lon="-2.56922">
        <ele>27.05</ele>
        <time>2015-04-27T07:55:38Z</time>
      </trkpt>
      <trkpt lat="48.57949" lon="-2.56903">
        <ele>27.53</ele>
        <time>2015-04-27T07:55:52Z</time>
      </trkpt>
      <trkpt lat="48.57967" lon="-2.56881">
        <ele>27.53</ele>
        <time>2015-04-27T07:56:14Z</time>
      </trkpt>
      <trkpt lat="48.57969" lon="-2.5688">
        <ele>27.53</ele>
        <time>2015-04-27T07:56:16Z</time>
      </trkpt>
      <trkpt lat="48.57974" lon="-2.56877">
        <ele>27.05</ele>
        <time>2015-04-27T07:56:20Z</time>
      </trkpt>
      <trkpt lat="48.57993" lon="-2.56871">
        <ele>28.98</ele>
        <time>2015-04-27T07:56:37Z</time>
      </trkpt>
      <trkpt lat="48.58" lon="-2.5687">
        <ele>24.65</ele>
        <time>2015-04-27T07:56:42Z</time>
      </trkpt>
      <trkpt lat="48.58002" lon="-2.56869">
        <ele>28.5</ele>
        <time>2015-04-27T07:56:44Z</time>
      </trkpt>
      <trkpt lat="48.58005" lon="-2.56869">
        <ele>27.53</ele>
        <time>2015-04-27T07:56:47Z</time>
      </trkpt>
      <trkpt lat="48.5803" lon="-2.56879">
        <ele>26.09</ele>
        <time>2015-04-27T07:57:10Z</time>
      </trkpt>
      <trkpt lat="48.58031" lon="-2.56879">
        <ele>25.61</ele>
        <time>2015-04-27T07:57:11Z</time>
      </trkpt>
      <trkpt lat="48.58034" lon="-2.56889">
        <ele>22.25</ele>
        <time>2015-04-27T07:57:19Z</time>
      </trkpt>
      <trkpt lat="48.58052" lon="-2.56906">
        <ele>22.73</ele>
        <time>2015-04-27T07:57:38Z</time>
      </trkpt>
      <trkpt lat="48.58053" lon="-2.56911">
        <ele>22.73</ele>
        <time>2015-04-27T07:57:41Z</time>
      </trkpt>
      <trkpt lat="48.58057" lon="-2.56931">
        <ele>22.73</ele>
        <time>2015-04-27T07:57:52Z</time>
      </trkpt>
      <trkpt lat="48.58061" lon="-2.5694">
        <ele>22.73</ele>
        <time>2015-04-27T07:57:57Z</time>
      </trkpt>
      <trkpt lat="48.58062" lon="-2.56943">
        <ele>23.21</ele>
        <time>2015-04-27T07:57:59Z</time>
      </trkpt>
      <trkpt lat="48.58073" lon="-2.56955">
        <ele>22.73</ele>
        <time>2015-04-27T07:58:09Z</time>
      </trkpt>
      <trkpt lat="48.58089" lon="-2.56962">
        <ele>23.21</ele>
        <time>2015-04-27T07:58:22Z</time>
      </trkpt>
      <trkpt lat="48.58097" lon="-2.56961">
        <ele>23.69</ele>
        <time>2015-04-27T07:58:29Z</time>
      </trkpt>
      <trkpt lat="48.58103" lon="-2.56958">
        <ele>24.17</ele>
        <time>2015-04-27T07:58:34Z</time>
      </trkpt>
      <trkpt lat="48.5811" lon="-2.56957">
        <ele>25.13</ele>
        <time>2015-04-27T07:58:39Z</time>
      </trkpt>
      <trkpt lat="48.58127" lon="-2.56957">
        <ele>27.05</ele>
        <time>2015-04-27T07:58:53Z</time>
      </trkpt>
      <trkpt lat="48.58145" lon="-2.56959">
        <ele>29.46</ele>
        <time>2015-04-27T07:59:11Z</time>
      </trkpt>
      <trkpt lat="48.58147" lon="-2.56959">
        <ele>29.94</ele>
        <time>2015-04-27T07:59:13Z</time>
      </trkpt>
      <trkpt lat="48.58151" lon="-2.56959">
        <ele>30.9</ele>
        <time>2015-04-27T07:59:17Z</time>
      </trkpt>
      <trkpt lat="48.58165" lon="-2.56956">
        <ele>32.82</ele>
        <time>2015-04-27T07:59:31Z</time>
      </trkpt>
      <trkpt lat="48.58167" lon="-2.56957">
        <ele>33.3</ele>
        <time>2015-04-27T07:59:33Z</time>
      </trkpt>
      <trkpt lat="48.58186" lon="-2.56949">
        <ele>35.71</ele>
        <time>2015-04-27T07:59:53Z</time>
      </trkpt>
      <trkpt lat="48.58193" lon="-2.56942">
        <ele>37.63</ele>
        <time>2015-04-27T08:00:09Z</time>
      </trkpt>
      <trkpt lat="48.58193" lon="-2.56942">
        <ele>37.15</ele>
        <time>2015-04-27T08:00:44Z</time>
      </trkpt>
      <trkpt lat="48.58197" lon="-2.56943">
        <ele>36.19</ele>
        <time>2015-04-27T08:00:58Z</time>
      </trkpt>
      <trkpt lat="48.58198" lon="-2.56943">
        <ele>36.67</ele>
        <time>2015-04-27T08:01:40Z</time>
      </trkpt>
      <trkpt lat="48.58198" lon="-2.56943">
        <ele>35.71</ele>
        <time>2015-04-27T08:01:50Z</time>
      </trkpt>
      <trkpt lat="48.582" lon="-2.5694">
        <ele>35.23</ele>
        <time>2015-04-27T08:01:54Z</time>
      </trkpt>
      <trkpt lat="48.58209" lon="-2.56933">
        <ele>30.9</ele>
        <time>2015-04-27T08:02:05Z</time>
      </trkpt>
      <trkpt lat="48.5821" lon="-2.56933">
        <ele>33.78</ele>
        <time>2015-04-27T08:02:06Z</time>
      </trkpt>
      <trkpt lat="48.58214" lon="-2.56932">
        <ele>34.74</ele>
        <time>2015-04-27T08:02:10Z</time>
      </trkpt>
      <trkpt lat="48.58235" lon="-2.56934">
        <ele>36.19</ele>
        <time>2015-04-27T08:02:29Z</time>
      </trkpt>
      <trkpt lat="48.5824" lon="-2.56931">
        <ele>36.19</ele>
        <time>2015-04-27T08:02:36Z</time>
      </trkpt>
      <trkpt lat="48.58245" lon="-2.56931">
        <ele>37.15</ele>
        <time>2015-04-27T08:02:40Z</time>
      </trkpt>
      <trkpt lat="48.5826" lon="-2.56932">
        <ele>38.11</ele>
        <time>2015-04-27T08:02:53Z</time>
      </trkpt>
      <trkpt lat="48.58278" lon="-2.5693">
        <ele>38.59</ele>
        <time>2015-04-27T08:03:09Z</time>
      </trkpt>
      <trkpt lat="48.58284" lon="-2.56931">
        <ele>37.15</ele>
        <time>2015-04-27T08:03:14Z</time>
      </trkpt>
      <trkpt lat="48.5831" lon="-2.56925">
        <ele>36.67</ele>
        <time>2015-04-27T08:03:38Z</time>
      </trkpt>
      <trkpt lat="48.58313" lon="-2.56925">
        <ele>36.19</ele>
        <time>2015-04-27T08:03:41Z</time>
      </trkpt>
      <trkpt lat="48.58319" lon="-2.56923">
        <ele>35.71</ele>
        <time>2015-04-27T08:03:46Z</time>
      </trkpt>
      <trkpt lat="48.58328" lon="-2.56908">
        <ele>35.71</ele>
        <time>2015-04-27T08:04:05Z</time>
      </trkpt>
      <trkpt lat="48.58321" lon="-2.56882">
        <ele>36.19</ele>
        <time>2015-04-27T08:04:24Z</time>
      </trkpt>
      <trkpt lat="48.58305" lon="-2.56864">
        <ele>34.26</ele>
        <time>2015-04-27T08:04:43Z</time>
      </trkpt>
      <trkpt lat="48.58299" lon="-2.56857">
        <ele>32.34</ele>
        <time>2015-04-27T08:04:50Z</time>
      </trkpt>
      <trkpt lat="48.58295" lon="-2.56853">
        <ele>31.38</ele>
        <time>2015-04-27T08:04:54Z</time>
      </trkpt>
      <trkpt lat="48.58274" lon="-2.56829">
        <ele>32.82</ele>
        <time>2015-04-27T08:05:18Z</time>
      </trkpt>
      <trkpt lat="48.58273" lon="-2.56829">
        <ele>29.46</ele>
        <time>2015-04-27T08:05:19Z</time>
      </trkpt>
      <trkpt lat="48.58261" lon="-2.56819">
        <ele>28.5</ele>
        <time>2015-04-27T08:05:42Z</time>
      </trkpt>
      <trkpt lat="48.58255" lon="-2.56812">
        <ele>30.42</ele>
        <time>2015-04-27T08:05:51Z</time>
      </trkpt>
      <trkpt lat="48.58252" lon="-2.5681">
        <ele>30.42</ele>
        <time>2015-04-27T08:05:53Z</time>
      </trkpt>
      <trkpt lat="48.5825" lon="-2.56804">
        <ele>30.42</ele>
        <time>2015-04-27T08:05:58Z</time>
      </trkpt>
      <trkpt lat="48.58243" lon="-2.56776">
        <ele>29.46</ele>
        <time>2015-04-27T08:06:16Z</time>
      </trkpt>
      <trkpt lat="48.58244" lon="-2.5676">
        <ele>28.5</ele>
        <time>2015-04-27T08:06:25Z</time>
      </trkpt>
      <trkpt lat="48.58246" lon="-2.56755">
        <ele>25.61</ele>
        <time>2015-04-27T08:06:28Z</time>
      </trkpt>
      <trkpt lat="48.58251" lon="-2.56721">
        <ele>24.17</ele>
        <time>2015-04-27T08:06:47Z</time>
      </trkpt>
      <trkpt lat="48.58249" lon="-2.56712">
        <ele>23.69</ele>
        <time>2015-04-27T08:06:52Z</time>
      </trkpt>
      <trkpt lat="48.58251" lon="-2.567">
        <ele>21.29</ele>
        <time>2015-04-27T08:07:00Z</time>
      </trkpt>
      <trkpt lat="48.58252" lon="-2.56688">
        <ele>20.32</ele>
        <time>2015-04-27T08:07:06Z</time>
      </trkpt>
      <trkpt lat="48.58251" lon="-2.5668">
        <ele>21.29</ele>
        <time>2015-04-27T08:07:10Z</time>
      </trkpt>
      <trkpt lat="48.58252" lon="-2.56658">
        <ele>21.77</ele>
        <time>2015-04-27T08:07:21Z</time>
      </trkpt>
      <trkpt lat="48.58254" lon="-2.56635">
        <ele>22.25</ele>
        <time>2015-04-27T08:07:33Z</time>
      </trkpt>
      <trkpt lat="48.58254" lon="-2.56625">
        <ele>23.21</ele>
        <time>2015-04-27T08:07:38Z</time>
      </trkpt>
      <trkpt lat="48.58264" lon="-2.56591">
        <ele>23.69</ele>
        <time>2015-04-27T08:07:58Z</time>
      </trkpt>
      <trkpt lat="48.58268" lon="-2.56586">
        <ele>24.65</ele>
        <time>2015-04-27T08:08:09Z</time>
      </trkpt>
      <trkpt lat="48.58273" lon="-2.56577">
        <ele>24.65</ele>
        <time>2015-04-27T08:08:15Z</time>
      </trkpt>
      <trkpt lat="48.58277" lon="-2.56569">
        <ele>24.65</ele>
        <time>2015-04-27T08:08:20Z</time>
      </trkpt>
      <trkpt lat="48.58281" lon="-2.56563">
        <ele>24.65</ele>
        <time>2015-04-27T08:08:25Z</time>
      </trkpt>
      <trkpt lat="48.58298" lon="-2.56543">
        <ele>26.09</ele>
        <time>2015-04-27T08:08:45Z</time>
      </trkpt>
      <trkpt lat="48.58317" lon="-2.56534">
        <ele>28.02</ele>
        <time>2015-04-27T08:09:02Z</time>
      </trkpt>
      <trkpt lat="48.58319" lon="-2.56533">
        <ele>28.02</ele>
        <time>2015-04-27T08:09:04Z</time>
      </trkpt>
      <trkpt lat="48.58322" lon="-2.56534">
        <ele>28.02</ele>
        <time>2015-04-27T08:09:06Z</time>
      </trkpt>
      <trkpt lat="48.58326" lon="-2.56534">
        <ele>28.02</ele>
        <time>2015-04-27T08:09:10Z</time>
      </trkpt>
      <trkpt lat="48.58353" lon="-2.56536">
        <ele>28.98</ele>
        <time>2015-04-27T08:09:31Z</time>
      </trkpt>
      <trkpt lat="48.58369" lon="-2.56547">
        <ele>27.05</ele>
        <time>2015-04-27T08:09:50Z</time>
      </trkpt>
      <trkpt lat="48.58373" lon="-2.56559">
        <ele>23.69</ele>
        <time>2015-04-27T08:10:03Z</time>
      </trkpt>
      <trkpt lat="48.58378" lon="-2.56562">
        <ele>23.21</ele>
        <time>2015-04-27T08:10:10Z</time>
      </trkpt>
      <trkpt lat="48.58383" lon="-2.56567">
        <ele>22.73</ele>
        <time>2015-04-27T08:10:15Z</time>
      </trkpt>
      <trkpt lat="48.58386" lon="-2.56571">
        <ele>22.25</ele>
        <time>2015-04-27T08:10:19Z</time>
      </trkpt>
      <trkpt lat="48.5839" lon="-2.56584">
        <ele>22.73</ele>
        <time>2015-04-27T08:10:38Z</time>
      </trkpt>
      <trkpt lat="48.58388" lon="-2.56595">
        <ele>20.81</ele>
        <time>2015-04-27T08:10:49Z</time>
      </trkpt>
      <trkpt lat="48.5839" lon="-2.56599">
        <ele>20.32</ele>
        <time>2015-04-27T08:10:52Z</time>
      </trkpt>
      <trkpt lat="48.58403" lon="-2.56601">
        <ele>20.32</ele>
        <time>2015-04-27T08:11:03Z</time>
      </trkpt>
      <trkpt lat="48.58408" lon="-2.56599">
        <ele>21.29</ele>
        <time>2015-04-27T08:11:09Z</time>
      </trkpt>
      <trkpt lat="48.58417" lon="-2.56592">
        <ele>23.21</ele>
        <time>2015-04-27T08:11:26Z</time>
      </trkpt>
      <trkpt lat="48.58417" lon="-2.56589">
        <ele>25.61</ele>
        <time>2015-04-27T08:11:44Z</time>
      </trkpt>
      <trkpt lat="48.58424" lon="-2.56583">
        <ele>27.53</ele>
        <time>2015-04-27T08:12:03Z</time>
      </trkpt>
      <trkpt lat="48.58427" lon="-2.56583">
        <ele>27.05</ele>
        <time>2015-04-27T08:12:06Z</time>
      </trkpt>
      <trkpt lat="48.58441" lon="-2.56571">
        <ele>26.09</ele>
        <time>2015-04-27T08:12:23Z</time>
      </trkpt>
      <trkpt lat="48.58443" lon="-2.5655">
        <ele>26.09</ele>
        <time>2015-04-27T08:12:36Z</time>
      </trkpt>
      <trkpt lat="48.58442" lon="-2.5654">
        <ele>25.61</ele>
        <time>2015-04-27T08:12:42Z</time>
      </trkpt>
      <trkpt lat="48.5844" lon="-2.56504">
        <ele>24.65</ele>
        <time>2015-04-27T08:13:03Z</time>
      </trkpt>
      <trkpt lat="48.5844" lon="-2.56501">
        <ele>25.13</ele>
        <time>2015-04-27T08:13:05Z</time>
      </trkpt>
      <trkpt lat="48.58441" lon="-2.56479">
        <ele>23.69</ele>
        <time>2015-04-27T08:13:26Z</time>
      </trkpt>
      <trkpt lat="48.58442" lon="-2.56473">
        <ele>22.73</ele>
        <time>2015-04-27T08:13:32Z</time>
      </trkpt>
      <trkpt lat="48.58438" lon="-2.56456">
        <ele>21.77</ele>
        <time>2015-04-27T08:13:44Z</time>
      </trkpt>
      <trkpt lat="48.58431" lon="-2.56453">
        <ele>22.73</ele>
        <time>2015-04-27T08:13:51Z</time>
      </trkpt>
      <trkpt lat="48.5842" lon="-2.56454">
        <ele>24.17</ele>
        <time>2015-04-27T08:14:06Z</time>
      </trkpt>
      <trkpt lat="48.5842" lon="-2.56454">
        <ele>26.09</ele>
        <time>2015-04-27T08:14:24Z</time>
      </trkpt>
      <trkpt lat="48.58412" lon="-2.56458">
        <ele>27.05</ele>
        <time>2015-04-27T08:14:44Z</time>
      </trkpt>
      <trkpt lat="48.58405" lon="-2.56458">
        <ele>30.9</ele>
        <time>2015-04-27T08:14:56Z</time>
      </trkpt>
      <trkpt lat="48.58397" lon="-2.56457">
        <ele>30.9</ele>
        <time>2015-04-27T08:15:02Z</time>
      </trkpt>
      <trkpt lat="48.58389" lon="-2.56448">
        <ele>32.34</ele>
        <time>2015-04-27T08:15:13Z</time>
      </trkpt>
      <trkpt lat="48.58386" lon="-2.5644">
        <ele>31.38</ele>
        <time>2015-04-27T08:15:18Z</time>
      </trkpt>
      <trkpt lat="48.58383" lon="-2.56424">
        <ele>29.94</ele>
        <time>2015-04-27T08:15:32Z</time>
      </trkpt>
      <trkpt lat="48.58384" lon="-2.56411">
        <ele>29.94</ele>
        <time>2015-04-27T08:15:40Z</time>
      </trkpt>
      <trkpt lat="48.58383" lon="-2.56402">
        <ele>29.46</ele>
        <time>2015-04-27T08:15:45Z</time>
      </trkpt>
      <trkpt lat="48.58383" lon="-2.56393">
        <ele>27.05</ele>
        <time>2015-04-27T08:15:50Z</time>
      </trkpt>
      <trkpt lat="48.58382" lon="-2.56371">
        <ele>27.05</ele>
        <time>2015-04-27T08:16:03Z</time>
      </trkpt>
      <trkpt lat="48.58382" lon="-2.56362">
        <ele>26.09</ele>
        <time>2015-04-27T08:16:09Z</time>
      </trkpt>
      <trkpt lat="48.58391" lon="-2.56348">
        <ele>24.65</ele>
        <time>2015-04-27T08:16:29Z</time>
      </trkpt>
      <trkpt lat="48.58393" lon="-2.56342">
        <ele>22.73</ele>
        <time>2015-04-27T08:16:45Z</time>
      </trkpt>
      <trkpt lat="48.58393" lon="-2.5634">
        <ele>22.25</ele>
        <time>2015-04-27T08:16:47Z</time>
      </trkpt>
      <trkpt lat="48.58395" lon="-2.56332">
        <ele>20.81</ele>
        <time>2015-04-27T08:16:55Z</time>
      </trkpt>
      <trkpt lat="48.58396" lon="-2.56325">
        <ele>19.36</ele>
        <time>2015-04-27T08:17:01Z</time>
      </trkpt>
      <trkpt lat="48.58398" lon="-2.5632">
        <ele>18.88</ele>
        <time>2015-04-27T08:17:05Z</time>
      </trkpt>
      <trkpt lat="48.58401" lon="-2.56312">
        <ele>18.4</ele>
        <time>2015-04-27T08:17:11Z</time>
      </trkpt>
      <trkpt lat="48.58404" lon="-2.56292">
        <ele>16.48</ele>
        <time>2015-04-27T08:17:26Z</time>
      </trkpt>
      <trkpt lat="48.58411" lon="-2.56267">
        <ele>13.12</ele>
        <time>2015-04-27T08:17:47Z</time>
      </trkpt>
      <trkpt lat="48.58415" lon="-2.56263">
        <ele>12.15</ele>
        <time>2015-04-27T08:17:55Z</time>
      </trkpt>
      <trkpt lat="48.58418" lon="-2.56264">
        <ele>11.67</ele>
        <time>2015-04-27T08:17:58Z</time>
      </trkpt>
      <trkpt lat="48.58438" lon="-2.56277">
        <ele>10.71</ele>
        <time>2015-04-27T08:18:22Z</time>
      </trkpt>
      <trkpt lat="48.58438" lon="-2.56277">
        <ele>10.71</ele>
        <time>2015-04-27T08:18:51Z</time>
      </trkpt>
      <trkpt lat="48.58441" lon="-2.56281">
        <ele>10.71</ele>
        <time>2015-04-27T08:19:11Z</time>
      </trkpt>
      <trkpt lat="48.58446" lon="-2.56276">
        <ele>10.23</ele>
        <time>2015-04-27T08:19:34Z</time>
      </trkpt>
      <trkpt lat="48.58455" lon="-2.56268">
        <ele>9.75</ele>
        <time>2015-04-27T08:19:52Z</time>
      </trkpt>
      <trkpt lat="48.58458" lon="-2.56267">
        <ele>10.23</ele>
        <time>2015-04-27T08:20:17Z</time>
      </trkpt>
      <trkpt lat="48.58462" lon="-2.56261">
        <ele>9.27</ele>
        <time>2015-04-27T08:20:31Z</time>
      </trkpt>
      <trkpt lat="48.58464" lon="-2.56255">
        <ele>10.23</ele>
        <time>2015-04-27T08:20:36Z</time>
      </trkpt>
      <trkpt lat="48.58465" lon="-2.56254">
        <ele>8.79</ele>
        <time>2015-04-27T08:20:37Z</time>
      </trkpt>
      <trkpt lat="48.5847" lon="-2.5624">
        <ele>10.23</ele>
        <time>2015-04-27T08:20:56Z</time>
      </trkpt>
      <trkpt lat="48.58467" lon="-2.56256">
        <ele>8.31</ele>
        <time>2015-04-27T08:21:14Z</time>
      </trkpt>
      <trkpt lat="48.58466" lon="-2.56257">
        <ele>8.31</ele>
        <time>2015-04-27T08:21:33Z</time>
      </trkpt>
      <trkpt lat="48.58467" lon="-2.56245">
        <ele>8.79</ele>
        <time>2015-04-27T08:21:43Z</time>
      </trkpt>
      <trkpt lat="48.58469" lon="-2.5624">
        <ele>10.23</ele>
        <time>2015-04-27T08:21:51Z</time>
      </trkpt>
      <trkpt lat="48.58469" lon="-2.5624">
        <ele>10.23</ele>
        <time>2015-04-27T08:21:58Z</time>
      </trkpt>
      <trkpt lat="48.58466" lon="-2.56239">
        <ele>10.23</ele>
        <time>2015-04-27T08:22:03Z</time>
      </trkpt>
      <trkpt lat="48.58451" lon="-2.56258">
        <ele>9.75</ele>
        <time>2015-04-27T08:22:26Z</time>
      </trkpt>
      <trkpt lat="48.58447" lon="-2.56266">
        <ele>10.23</ele>
        <time>2015-04-27T08:22:47Z</time>
      </trkpt>
      <trkpt lat="48.58447" lon="-2.56266">
        <ele>9.75</ele>
        <time>2015-04-27T08:23:08Z</time>
      </trkpt>
      <trkpt lat="48.58447" lon="-2.56266">
        <ele>8.79</ele>
        <time>2015-04-27T08:23:58Z</time>
      </trkpt>
      <trkpt lat="48.58454" lon="-2.56253">
        <ele>9.27</ele>
        <time>2015-04-27T08:24:24Z</time>
      </trkpt>
      <trkpt lat="48.58461" lon="-2.5624">
        <ele>8.79</ele>
        <time>2015-04-27T08:24:38Z</time>
      </trkpt>
      <trkpt lat="48.58477" lon="-2.56218">
        <ele>8.79</ele>
        <time>2015-04-27T08:24:59Z</time>
      </trkpt>
      <trkpt lat="48.58491" lon="-2.56195">
        <ele>8.79</ele>
        <time>2015-04-27T08:25:21Z</time>
      </trkpt>
      <trkpt lat="48.58493" lon="-2.56189">
        <ele>9.27</ele>
        <time>2015-04-27T08:25:25Z</time>
      </trkpt>
      <trkpt lat="48.58496" lon="-2.56177">
        <ele>9.27</ele>
        <time>2015-04-27T08:25:32Z</time>
      </trkpt>
      <trkpt lat="48.58499" lon="-2.56169">
        <ele>10.23</ele>
        <time>2015-04-27T08:25:37Z</time>
      </trkpt>
      <trkpt lat="48.58505" lon="-2.56165">
        <ele>10.23</ele>
        <time>2015-04-27T08:25:58Z</time>
      </trkpt>
      <trkpt lat="48.58509" lon="-2.56169">
        <ele>8.79</ele>
        <time>2015-04-27T08:26:14Z</time>
      </trkpt>
      <trkpt lat="48.58518" lon="-2.56171">
        <ele>7.35</ele>
        <time>2015-04-27T08:26:26Z</time>
      </trkpt>
      <trkpt lat="48.58524" lon="-2.56169">
        <ele>5.91</ele>
        <time>2015-04-27T08:26:31Z</time>
      </trkpt>
      <trkpt lat="48.58526" lon="-2.56166">
        <ele>5.91</ele>
        <time>2015-04-27T08:26:34Z</time>
      </trkpt>
      <trkpt lat="48.58538" lon="-2.5615">
        <ele>4.94</ele>
        <time>2015-04-27T08:26:49Z</time>
      </trkpt>
      <trkpt lat="48.58555" lon="-2.56126">
        <ele>5.42</ele>
        <time>2015-04-27T08:27:11Z</time>
      </trkpt>
      <trkpt lat="48.58569" lon="-2.56107">
        <ele>4.94</ele>
        <time>2015-04-27T08:27:27Z</time>
      </trkpt>
      <trkpt lat="48.58586" lon="-2.56081">
        <ele>4.94</ele>
        <time>2015-04-27T08:27:47Z</time>
      </trkpt>
      <trkpt lat="48.586" lon="-2.56058">
        <ele>4.46</ele>
        <time>2015-04-27T08:28:03Z</time>
      </trkpt>
      <trkpt lat="48.58607" lon="-2.5605">
        <ele>4.46</ele>
        <time>2015-04-27T08:28:09Z</time>
      </trkpt>
      <trkpt lat="48.58613" lon="-2.56042">
        <ele>4.46</ele>
        <time>2015-04-27T08:28:15Z</time>
      </trkpt>
      <trkpt lat="48.58631" lon="-2.56006">
        <ele>4.46</ele>
        <time>2015-04-27T08:28:36Z</time>
      </trkpt>
      <trkpt lat="48.58641" lon="-2.55992">
        <ele>4.46</ele>
        <time>2015-04-27T08:28:45Z</time>
      </trkpt>
      <trkpt lat="48.5865" lon="-2.55976">
        <ele>5.42</ele>
        <time>2015-04-27T08:28:56Z</time>
      </trkpt>
      <trkpt lat="48.58658" lon="-2.55967">
        <ele>6.87</ele>
        <time>2015-04-27T08:29:08Z</time>
      </trkpt>
      <trkpt lat="48.58661" lon="-2.55964">
        <ele>3.5</ele>
        <time>2015-04-27T08:29:15Z</time>
      </trkpt>
      <trkpt lat="48.58679" lon="-2.55943">
        <ele>3.98</ele>
        <time>2015-04-27T08:29:35Z</time>
      </trkpt>
      <trkpt lat="48.5868" lon="-2.55941">
        <ele>4.46</ele>
        <time>2015-04-27T08:29:37Z</time>
      </trkpt>
      <trkpt lat="48.58688" lon="-2.55931">
        <ele>4.94</ele>
        <time>2015-04-27T08:29:46Z</time>
      </trkpt>
      <trkpt lat="48.5869" lon="-2.55928">
        <ele>3.98</ele>
        <time>2015-04-27T08:29:49Z</time>
      </trkpt>
      <trkpt lat="48.58693" lon="-2.55923">
        <ele>3.98</ele>
        <time>2015-04-27T08:29:53Z</time>
      </trkpt>
      <trkpt lat="48.58695" lon="-2.55921">
        <ele>3.98</ele>
        <time>2015-04-27T08:29:55Z</time>
      </trkpt>
      <trkpt lat="48.58697" lon="-2.55918">
        <ele>4.46</ele>
        <time>2015-04-27T08:29:57Z</time>
      </trkpt>
      <trkpt lat="48.58705" lon="-2.55905">
        <ele>6.87</ele>
        <time>2015-04-27T08:30:08Z</time>
      </trkpt>
      <trkpt lat="48.58709" lon="-2.55902">
        <ele>6.39</ele>
        <time>2015-04-27T08:30:14Z</time>
      </trkpt>
      <trkpt lat="48.58706" lon="-2.55902">
        <ele>6.39</ele>
        <time>2015-04-27T08:30:17Z</time>
      </trkpt>
      <trkpt lat="48.58697" lon="-2.55902">
        <ele>6.39</ele>
        <time>2015-04-27T08:30:27Z</time>
      </trkpt>
      <trkpt lat="48.58692" lon="-2.55893">
        <ele>5.42</ele>
        <time>2015-04-27T08:30:38Z</time>
      </trkpt>
      <trkpt lat="48.58697" lon="-2.55887">
        <ele>5.42</ele>
        <time>2015-04-27T08:30:44Z</time>
      </trkpt>
      <trkpt lat="48.58711" lon="-2.55869">
        <ele>5.91</ele>
        <time>2015-04-27T08:30:59Z</time>
      </trkpt>
      <trkpt lat="48.58713" lon="-2.55867">
        <ele>5.42</ele>
        <time>2015-04-27T08:31:02Z</time>
      </trkpt>
      <trkpt lat="48.58732" lon="-2.5585">
        <ele>5.91</ele>
        <time>2015-04-27T08:31:19Z</time>
      </trkpt>
      <trkpt lat="48.58744" lon="-2.55838">
        <ele>5.42</ele>
        <time>2015-04-27T08:31:31Z</time>
      </trkpt>
      <trkpt lat="48.58757" lon="-2.55823">
        <ele>4.46</ele>
        <time>2015-04-27T08:31:43Z</time>
      </trkpt>
      <trkpt lat="48.58764" lon="-2.55815">
        <ele>4.94</ele>
        <time>2015-04-27T08:31:50Z</time>
      </trkpt>
      <trkpt lat="48.58768" lon="-2.55809">
        <ele>4.94</ele>
        <time>2015-04-27T08:31:54Z</time>
      </trkpt>
      <trkpt lat="48.58791" lon="-2.55788">
        <ele>4.94</ele>
        <time>2015-04-27T08:32:14Z</time>
      </trkpt>
      <trkpt lat="48.58808" lon="-2.55766">
        <ele>4.94</ele>
        <time>2015-04-27T08:32:31Z</time>
      </trkpt>
      <trkpt lat="48.58824" lon="-2.55746">
        <ele>5.91</ele>
        <time>2015-04-27T08:32:48Z</time>
      </trkpt>
      <trkpt lat="48.58826" lon="-2.55745">
        <ele>5.91</ele>
        <time>2015-04-27T08:32:50Z</time>
      </trkpt>
      <trkpt lat="48.58834" lon="-2.55733">
        <ele>4.94</ele>
        <time>2015-04-27T08:32:59Z</time>
      </trkpt>
      <trkpt lat="48.58839" lon="-2.55725">
        <ele>3.98</ele>
        <time>2015-04-27T08:33:05Z</time>
      </trkpt>
      <trkpt lat="48.58843" lon="-2.5572">
        <ele>3.98</ele>
        <time>2015-04-27T08:33:10Z</time>
      </trkpt>
      <trkpt lat="48.58862" lon="-2.55693">
        <ele>3.98</ele>
        <time>2015-04-27T08:33:31Z</time>
      </trkpt>
      <trkpt lat="48.58879" lon="-2.55667">
        <ele>3.98</ele>
        <time>2015-04-27T08:33:50Z</time>
      </trkpt>
      <trkpt lat="48.58884" lon="-2.55661">
        <ele>7.35</ele>
        <time>2015-04-27T08:33:56Z</time>
      </trkpt>
      <trkpt lat="48.58888" lon="-2.55655">
        <ele>6.39</ele>
        <time>2015-04-27T08:34:05Z</time>
      </trkpt>
      <trkpt lat="48.5889" lon="-2.55655">
        <ele>5.42</ele>
        <time>2015-04-27T08:34:07Z</time>
      </trkpt>
      <trkpt lat="48.58894" lon="-2.55655">
        <ele>5.91</ele>
        <time>2015-04-27T08:34:11Z</time>
      </trkpt>
      <trkpt lat="48.58905" lon="-2.55641">
        <ele>5.42</ele>
        <time>2015-04-27T08:34:22Z</time>
      </trkpt>
      <trkpt lat="48.5891" lon="-2.55636">
        <ele>4.94</ele>
        <time>2015-04-27T08:34:26Z</time>
      </trkpt>
      <trkpt lat="48.58912" lon="-2.55635">
        <ele>5.42</ele>
        <time>2015-04-27T08:34:28Z</time>
      </trkpt>
      <trkpt lat="48.58923" lon="-2.55634">
        <ele>5.42</ele>
        <time>2015-04-27T08:34:44Z</time>
      </trkpt>
      <trkpt lat="48.58929" lon="-2.55631">
        <ele>5.42</ele>
        <time>2015-04-27T08:34:59Z</time>
      </trkpt>
      <trkpt lat="48.58929" lon="-2.55632">
        <ele>5.91</ele>
        <time>2015-04-27T08:35:00Z</time>
      </trkpt>
      <trkpt lat="48.58929" lon="-2.55631">
        <ele>5.42</ele>
        <time>2015-04-27T08:35:22Z</time>
      </trkpt>
      <trkpt lat="48.58929" lon="-2.55631">
        <ele>5.42</ele>
        <time>2015-04-27T08:35:47Z</time>
      </trkpt>
      <trkpt lat="48.58929" lon="-2.55627">
        <ele>4.94</ele>
        <time>2015-04-27T08:36:56Z</time>
      </trkpt>
      <trkpt lat="48.58932" lon="-2.55622">
        <ele>4.46</ele>
        <time>2015-04-27T08:37:01Z</time>
      </trkpt>
      <trkpt lat="48.58935" lon="-2.5562">
        <ele>3.5</ele>
        <time>2015-04-27T08:37:06Z</time>
      </trkpt>
      <trkpt lat="48.58941" lon="-2.55618">
        <ele>5.42</ele>
        <time>2015-04-27T08:37:13Z</time>
      </trkpt>
      <trkpt lat="48.58944" lon="-2.55616">
        <ele>3.98</ele>
        <time>2015-04-27T08:37:16Z</time>
      </trkpt>
      <trkpt lat="48.58954" lon="-2.55608">
        <ele>5.42</ele>
        <time>2015-04-27T08:37:28Z</time>
      </trkpt>
      <trkpt lat="48.58959" lon="-2.55606">
        <ele>3.98</ele>
        <time>2015-04-27T08:37:33Z</time>
      </trkpt>
      <trkpt lat="48.58983" lon="-2.55591">
        <ele>4.46</ele>
        <time>2015-04-27T08:37:56Z</time>
      </trkpt>
      <trkpt lat="48.59003" lon="-2.55581">
        <ele>4.94</ele>
        <time>2015-04-27T08:38:14Z</time>
      </trkpt>
      <trkpt lat="48.59011" lon="-2.55577">
        <ele>4.46</ele>
        <time>2015-04-27T08:38:21Z</time>
      </trkpt>
      <trkpt lat="48.59037" lon="-2.5556">
        <ele>3.02</ele>
        <time>2015-04-27T08:38:45Z</time>
      </trkpt>
      <trkpt lat="48.59042" lon="-2.55552">
        <ele>4.46</ele>
        <time>2015-04-27T08:39:02Z</time>
      </trkpt>
      <trkpt lat="48.59044" lon="-2.55551">
        <ele>3.98</ele>
        <time>2015-04-27T08:39:06Z</time>
      </trkpt>
      <trkpt lat="48.59049" lon="-2.55549">
        <ele>4.46</ele>
        <time>2015-04-27T08:39:12Z</time>
      </trkpt>
      <trkpt lat="48.59051" lon="-2.55543">
        <ele>3.5</ele>
        <time>2015-04-27T08:39:27Z</time>
      </trkpt>
      <trkpt lat="48.59064" lon="-2.55532">
        <ele>3.5</ele>
        <time>2015-04-27T08:39:39Z</time>
      </trkpt>
      <trkpt lat="48.59079" lon="-2.55516">
        <ele>4.94</ele>
        <time>2015-04-27T08:39:59Z</time>
      </trkpt>
      <trkpt lat="48.59084" lon="-2.5551">
        <ele>4.46</ele>
        <time>2015-04-27T08:40:06Z</time>
      </trkpt>
      <trkpt lat="48.59103" lon="-2.55489">
        <ele>2.54</ele>
        <time>2015-04-27T08:40:26Z</time>
      </trkpt>
      <trkpt lat="48.59124" lon="-2.55468">
        <ele>3.02</ele>
        <time>2015-04-27T08:40:47Z</time>
      </trkpt>
      <trkpt lat="48.59136" lon="-2.55455">
        <ele>4.46</ele>
        <time>2015-04-27T08:41:08Z</time>
      </trkpt>
      <trkpt lat="48.59156" lon="-2.55433">
        <ele>3.02</ele>
        <time>2015-04-27T08:41:30Z</time>
      </trkpt>
      <trkpt lat="48.59158" lon="-2.55429">
        <ele>4.94</ele>
        <time>2015-04-27T08:41:33Z</time>
      </trkpt>
      <trkpt lat="48.59173" lon="-2.55424">
        <ele>3.02</ele>
        <time>2015-04-27T08:41:46Z</time>
      </trkpt>
      <trkpt lat="48.59189" lon="-2.55411">
        <ele>1.58</ele>
        <time>2015-04-27T08:42:00Z</time>
      </trkpt>
      <trkpt lat="48.59209" lon="-2.55394">
        <ele>3.5</ele>
        <time>2015-04-27T08:42:18Z</time>
      </trkpt>
      <trkpt lat="48.59219" lon="-2.55384">
        <ele>2.06</ele>
        <time>2015-04-27T08:42:28Z</time>
      </trkpt>
      <trkpt lat="48.59244" lon="-2.55364">
        <ele>3.02</ele>
        <time>2015-04-27T08:42:50Z</time>
      </trkpt>
      <trkpt lat="48.59257" lon="-2.55353">
        <ele>3.02</ele>
        <time>2015-04-27T08:43:02Z</time>
      </trkpt>
      <trkpt lat="48.59276" lon="-2.55339">
        <ele>3.98</ele>
        <time>2015-04-27T08:43:19Z</time>
      </trkpt>
      <trkpt lat="48.59277" lon="-2.55338">
        <ele>3.98</ele>
        <time>2015-04-27T08:43:20Z</time>
      </trkpt>
      <trkpt lat="48.59286" lon="-2.55331">
        <ele>3.02</ele>
        <time>2015-04-27T08:43:29Z</time>
      </trkpt>
      <trkpt lat="48.59303" lon="-2.55318">
        <ele>3.02</ele>
        <time>2015-04-27T08:43:46Z</time>
      </trkpt>
      <trkpt lat="48.59315" lon="-2.55305">
        <ele>3.98</ele>
        <time>2015-04-27T08:44:02Z</time>
      </trkpt>
      <trkpt lat="48.59336" lon="-2.5529">
        <ele>3.5</ele>
        <time>2015-04-27T08:44:21Z</time>
      </trkpt>
      <trkpt lat="48.59358" lon="-2.55278">
        <ele>3.02</ele>
        <time>2015-04-27T08:44:40Z</time>
      </trkpt>
      <trkpt lat="48.59379" lon="-2.55264">
        <ele>3.98</ele>
        <time>2015-04-27T08:44:57Z</time>
      </trkpt>
      <trkpt lat="48.59388" lon="-2.5526">
        <ele>3.5</ele>
        <time>2015-04-27T08:45:05Z</time>
      </trkpt>
      <trkpt lat="48.59397" lon="-2.55252">
        <ele>3.02</ele>
        <time>2015-04-27T08:45:12Z</time>
      </trkpt>
      <trkpt lat="48.59405" lon="-2.55247">
        <ele>3.5</ele>
        <time>2015-04-27T08:45:19Z</time>
      </trkpt>
      <trkpt lat="48.59409" lon="-2.5524">
        <ele>3.5</ele>
        <time>2015-04-27T08:45:24Z</time>
      </trkpt>
      <trkpt lat="48.59433" lon="-2.55231">
        <ele>3.98</ele>
        <time>2015-04-27T08:45:44Z</time>
      </trkpt>
      <trkpt lat="48.59462" lon="-2.55226">
        <ele>4.46</ele>
        <time>2015-04-27T08:46:06Z</time>
      </trkpt>
      <trkpt lat="48.59463" lon="-2.55225">
        <ele>4.46</ele>
        <time>2015-04-27T08:46:07Z</time>
      </trkpt>
      <trkpt lat="48.59468" lon="-2.55223">
        <ele>3.98</ele>
        <time>2015-04-27T08:46:11Z</time>
      </trkpt>
      <trkpt lat="48.59499" lon="-2.5522">
        <ele>4.46</ele>
        <time>2015-04-27T08:46:35Z</time>
      </trkpt>
      <trkpt lat="48.59527" lon="-2.55216">
        <ele>4.46</ele>
        <time>2015-04-27T08:46:56Z</time>
      </trkpt>
      <trkpt lat="48.59553" lon="-2.55211">
        <ele>4.46</ele>
        <time>2015-04-27T08:47:17Z</time>
      </trkpt>
      <trkpt lat="48.59558" lon="-2.5521">
        <ele>4.94</ele>
        <time>2015-04-27T08:47:21Z</time>
      </trkpt>
      <trkpt lat="48.5958" lon="-2.55202">
        <ele>6.87</ele>
        <time>2015-04-27T08:47:41Z</time>
      </trkpt>
      <trkpt lat="48.59594" lon="-2.55195">
        <ele>5.91</ele>
        <time>2015-04-27T08:47:53Z</time>
      </trkpt>
      <trkpt lat="48.59617" lon="-2.55185">
        <ele>4.94</ele>
        <time>2015-04-27T08:48:15Z</time>
      </trkpt>
      <trkpt lat="48.59621" lon="-2.55184">
        <ele>5.42</ele>
        <time>2015-04-27T08:48:19Z</time>
      </trkpt>
      <trkpt lat="48.59625" lon="-2.55181">
        <ele>4.94</ele>
        <time>2015-04-27T08:48:23Z</time>
      </trkpt>
      <trkpt lat="48.59644" lon="-2.55175">
        <ele>5.91</ele>
        <time>2015-04-27T08:48:42Z</time>
      </trkpt>
      <trkpt lat="48.59651" lon="-2.55173">
        <ele>6.39</ele>
        <time>2015-04-27T08:48:57Z</time>
      </trkpt>
      <trkpt lat="48.59657" lon="-2.5517">
        <ele>9.75</ele>
        <time>2015-04-27T08:49:10Z</time>
      </trkpt>
      <trkpt lat="48.59656" lon="-2.55167">
        <ele>9.75</ele>
        <time>2015-04-27T08:49:28Z</time>
      </trkpt>
      <trkpt lat="48.59656" lon="-2.55166">
        <ele>8.79</ele>
        <time>2015-04-27T08:50:15Z</time>
      </trkpt>
      <trkpt lat="48.59656" lon="-2.55166">
        <ele>9.75</ele>
        <time>2015-04-27T08:50:17Z</time>
      </trkpt>
      <trkpt lat="48.59656" lon="-2.55166">
        <ele>6.87</ele>
        <time>2015-04-27T08:50:32Z</time>
      </trkpt>
      <trkpt lat="48.59656" lon="-2.55166">
        <ele>10.23</ele>
        <time>2015-04-27T08:50:33Z</time>
      </trkpt>
      <trkpt lat="48.59657" lon="-2.55169">
        <ele>11.19</ele>
        <time>2015-04-27T08:50:48Z</time>
      </trkpt>
      <trkpt lat="48.59656" lon="-2.55186">
        <ele>10.71</ele>
        <time>2015-04-27T08:51:00Z</time>
      </trkpt>
      <trkpt lat="48.59658" lon="-2.55194">
        <ele>10.71</ele>
        <time>2015-04-27T08:51:06Z</time>
      </trkpt>
      <trkpt lat="48.5966" lon="-2.55203">
        <ele>10.23</ele>
        <time>2015-04-27T08:51:12Z</time>
      </trkpt>
      <trkpt lat="48.59671" lon="-2.55214">
        <ele>10.23</ele>
        <time>2015-04-27T08:51:28Z</time>
      </trkpt>
      <trkpt lat="48.59685" lon="-2.55239">
        <ele>10.71</ele>
        <time>2015-04-27T08:51:47Z</time>
      </trkpt>
      <trkpt lat="48.5969" lon="-2.5525">
        <ele>10.23</ele>
        <time>2015-04-27T08:51:56Z</time>
      </trkpt>
      <trkpt lat="48.5969" lon="-2.55255">
        <ele>10.23</ele>
        <time>2015-04-27T08:51:59Z</time>
      </trkpt>
      <trkpt lat="48.59696" lon="-2.55287">
        <ele>10.71</ele>
        <time>2015-04-27T08:52:20Z</time>
      </trkpt>
      <trkpt lat="48.59697" lon="-2.55289">
        <ele>11.19</ele>
        <time>2015-04-27T08:52:21Z</time>
      </trkpt>
      <trkpt lat="48.59697" lon="-2.55304">
        <ele>5.91</ele>
        <time>2015-04-27T08:52:30Z</time>
      </trkpt>
      <trkpt lat="48.59697" lon="-2.55305">
        <ele>10.23</ele>
        <time>2015-04-27T08:52:31Z</time>
      </trkpt>
      <trkpt lat="48.59697" lon="-2.55333">
        <ele>10.71</ele>
        <time>2015-04-27T08:52:50Z</time>
      </trkpt>
      <trkpt lat="48.597" lon="-2.55341">
        <ele>6.87</ele>
        <time>2015-04-27T08:52:55Z</time>
      </trkpt>
      <trkpt lat="48.59713" lon="-2.5537">
        <ele>11.19</ele>
        <time>2015-04-27T08:53:15Z</time>
      </trkpt>
      <trkpt lat="48.59725" lon="-2.5539">
        <ele>10.71</ele>
        <time>2015-04-27T08:53:31Z</time>
      </trkpt>
      <trkpt lat="48.59731" lon="-2.554">
        <ele>11.19</ele>
        <time>2015-04-27T08:53:38Z</time>
      </trkpt>
      <trkpt lat="48.59738" lon="-2.55418">
        <ele>10.23</ele>
        <time>2015-04-27T08:53:54Z</time>
      </trkpt>
      <trkpt lat="48.59739" lon="-2.55419">
        <ele>10.23</ele>
        <time>2015-04-27T08:53:55Z</time>
      </trkpt>
      <trkpt lat="48.59752" lon="-2.55447">
        <ele>10.71</ele>
        <time>2015-04-27T08:54:13Z</time>
      </trkpt>
      <trkpt lat="48.59769" lon="-2.55462">
        <ele>11.19</ele>
        <time>2015-04-27T08:54:34Z</time>
      </trkpt>
      <trkpt lat="48.59773" lon="-2.55468">
        <ele>10.71</ele>
        <time>2015-04-27T08:54:59Z</time>
      </trkpt>
      <trkpt lat="48.59773" lon="-2.55469">
        <ele>11.19</ele>
        <time>2015-04-27T08:55:00Z</time>
      </trkpt>
      <trkpt lat="48.59782" lon="-2.55476">
        <ele>13.6</ele>
        <time>2015-04-27T08:55:13Z</time>
      </trkpt>
      <trkpt lat="48.5979" lon="-2.55476">
        <ele>16.96</ele>
        <time>2015-04-27T08:55:27Z</time>
      </trkpt>
      <trkpt lat="48.59792" lon="-2.55474">
        <ele>17.44</ele>
        <time>2015-04-27T08:55:42Z</time>
      </trkpt>
      <trkpt lat="48.59792" lon="-2.5547">
        <ele>19.36</ele>
        <time>2015-04-27T08:55:45Z</time>
      </trkpt>
      <trkpt lat="48.59785" lon="-2.55469">
        <ele>20.32</ele>
        <time>2015-04-27T08:56:02Z</time>
      </trkpt>
      <trkpt lat="48.59784" lon="-2.55458">
        <ele>22.73</ele>
        <time>2015-04-27T08:56:19Z</time>
      </trkpt>
      <trkpt lat="48.59784" lon="-2.55449">
        <ele>25.61</ele>
        <time>2015-04-27T08:56:30Z</time>
      </trkpt>
      <trkpt lat="48.59784" lon="-2.55446">
        <ele>26.09</ele>
        <time>2015-04-27T08:56:33Z</time>
      </trkpt>
      <trkpt lat="48.59781" lon="-2.55427">
        <ele>29.94</ele>
        <time>2015-04-27T08:56:49Z</time>
      </trkpt>
      <trkpt lat="48.59781" lon="-2.55426">
        <ele>30.42</ele>
        <time>2015-04-27T08:57:06Z</time>
      </trkpt>
      <trkpt lat="48.59782" lon="-2.55427">
        <ele>30.9</ele>
        <time>2015-04-27T08:57:36Z</time>
      </trkpt>
      <trkpt lat="48.59791" lon="-2.55435">
        <ele>32.34</ele>
        <time>2015-04-27T08:57:52Z</time>
      </trkpt>
      <trkpt lat="48.59794" lon="-2.55437">
        <ele>33.78</ele>
        <time>2015-04-27T08:57:57Z</time>
      </trkpt>
      <trkpt lat="48.59803" lon="-2.55436">
        <ele>33.3</ele>
        <time>2015-04-27T08:58:06Z</time>
      </trkpt>
      <trkpt lat="48.59809" lon="-2.55437">
        <ele>33.78</ele>
        <time>2015-04-27T08:58:11Z</time>
      </trkpt>
      <trkpt lat="48.5982" lon="-2.55424">
        <ele>34.26</ele>
        <time>2015-04-27T08:58:32Z</time>
      </trkpt>
      <trkpt lat="48.59828" lon="-2.55418">
        <ele>35.23</ele>
        <time>2015-04-27T08:58:43Z</time>
      </trkpt>
      <trkpt lat="48.5983" lon="-2.55418">
        <ele>34.26</ele>
        <time>2015-04-27T08:58:45Z</time>
      </trkpt>
      <trkpt lat="48.59834" lon="-2.55414">
        <ele>35.71</ele>
        <time>2015-04-27T08:58:49Z</time>
      </trkpt>
      <trkpt lat="48.59838" lon="-2.55407">
        <ele>36.67</ele>
        <time>2015-04-27T08:58:55Z</time>
      </trkpt>
      <trkpt lat="48.59845" lon="-2.55394">
        <ele>38.11</ele>
        <time>2015-04-27T08:59:09Z</time>
      </trkpt>
      <trkpt lat="48.59849" lon="-2.55389">
        <ele>38.59</ele>
        <time>2015-04-27T08:59:15Z</time>
      </trkpt>
      <trkpt lat="48.59854" lon="-2.55386">
        <ele>38.59</ele>
        <time>2015-04-27T08:59:20Z</time>
      </trkpt>
      <trkpt lat="48.59861" lon="-2.55386">
        <ele>39.55</ele>
        <time>2015-04-27T08:59:26Z</time>
      </trkpt>
      <trkpt lat="48.59868" lon="-2.55387">
        <ele>39.07</ele>
        <time>2015-04-27T08:59:32Z</time>
      </trkpt>
      <trkpt lat="48.59878" lon="-2.55386">
        <ele>39.55</ele>
        <time>2015-04-27T08:59:42Z</time>
      </trkpt>
      <trkpt lat="48.59883" lon="-2.55386">
        <ele>40.99</ele>
        <time>2015-04-27T08:59:49Z</time>
      </trkpt>
      <trkpt lat="48.59886" lon="-2.55386">
        <ele>40.99</ele>
        <time>2015-04-27T09:00:00Z</time>
      </trkpt>
      <trkpt lat="48.59888" lon="-2.55383">
        <ele>39.55</ele>
        <time>2015-04-27T09:00:03Z</time>
      </trkpt>
      <trkpt lat="48.59908" lon="-2.55365">
        <ele>39.07</ele>
        <time>2015-04-27T09:00:24Z</time>
      </trkpt>
      <trkpt lat="48.59911" lon="-2.55362">
        <ele>39.07</ele>
        <time>2015-04-27T09:00:27Z</time>
      </trkpt>
      <trkpt lat="48.59912" lon="-2.55355">
        <ele>40.51</ele>
        <time>2015-04-27T09:00:37Z</time>
      </trkpt>
      <trkpt lat="48.59911" lon="-2.55333">
        <ele>41.47</ele>
        <time>2015-04-27T09:00:56Z</time>
      </trkpt>
      <trkpt lat="48.59914" lon="-2.55321">
        <ele>41.47</ele>
        <time>2015-04-27T09:01:06Z</time>
      </trkpt>
      <trkpt lat="48.59916" lon="-2.55315">
        <ele>42.44</ele>
        <time>2015-04-27T09:01:11Z</time>
      </trkpt>
      <trkpt lat="48.59921" lon="-2.55311">
        <ele>42.44</ele>
        <time>2015-04-27T09:01:32Z</time>
      </trkpt>
      <trkpt lat="48.59921" lon="-2.55311">
        <ele>41.47</ele>
        <time>2015-04-27T09:01:57Z</time>
      </trkpt>
      <trkpt lat="48.59921" lon="-2.55309">
        <ele>42.44</ele>
        <time>2015-04-27T09:02:52Z</time>
      </trkpt>
      <trkpt lat="48.59921" lon="-2.55306">
        <ele>41.47</ele>
        <time>2015-04-27T09:02:54Z</time>
      </trkpt>
      <trkpt lat="48.59912" lon="-2.55299">
        <ele>41.47</ele>
        <time>2015-04-27T09:03:09Z</time>
      </trkpt>
      <trkpt lat="48.59906" lon="-2.55293">
        <ele>40.99</ele>
        <time>2015-04-27T09:03:15Z</time>
      </trkpt>
      <trkpt lat="48.59899" lon="-2.55288">
        <ele>40.51</ele>
        <time>2015-04-27T09:03:23Z</time>
      </trkpt>
      <trkpt lat="48.59892" lon="-2.55276">
        <ele>39.55</ele>
        <time>2015-04-27T09:03:39Z</time>
      </trkpt>
      <trkpt lat="48.5988" lon="-2.55248">
        <ele>39.07</ele>
        <time>2015-04-27T09:04:01Z</time>
      </trkpt>
      <trkpt lat="48.5988" lon="-2.55246">
        <ele>38.59</ele>
        <time>2015-04-27T09:04:02Z</time>
      </trkpt>
      <trkpt lat="48.59877" lon="-2.55234">
        <ele>38.11</ele>
        <time>2015-04-27T09:04:10Z</time>
      </trkpt>
      <trkpt lat="48.59877" lon="-2.55215">
        <ele>37.15</ele>
        <time>2015-04-27T09:04:25Z</time>
      </trkpt>
      <trkpt lat="48.59876" lon="-2.55201">
        <ele>35.71</ele>
        <time>2015-04-27T09:04:42Z</time>
      </trkpt>
      <trkpt lat="48.59876" lon="-2.55201">
        <ele>36.19</ele>
        <time>2015-04-27T09:05:52Z</time>
      </trkpt>
      <trkpt lat="48.59876" lon="-2.55201">
        <ele>36.67</ele>
        <time>2015-04-27T09:07:06Z</time>
      </trkpt>
      <trkpt lat="48.59876" lon="-2.55201">
        <ele>37.15</ele>
        <time>2015-04-27T09:07:35Z</time>
      </trkpt>
      <trkpt lat="48.59875" lon="-2.552">
        <ele>37.15</ele>
        <time>2015-04-27T09:09:15Z</time>
      </trkpt>
      <trkpt lat="48.59875" lon="-2.55198">
        <ele>37.15</ele>
        <time>2015-04-27T09:10:15Z</time>
      </trkpt>
      <trkpt lat="48.59875" lon="-2.55195">
        <ele>36.67</ele>
        <time>2015-04-27T09:10:17Z</time>
      </trkpt>
      <trkpt lat="48.59871" lon="-2.55171">
        <ele>35.23</ele>
        <time>2015-04-27T09:10:34Z</time>
      </trkpt>
      <trkpt lat="48.59869" lon="-2.55145">
        <ele>34.26</ele>
        <time>2015-04-27T09:10:54Z</time>
      </trkpt>
      <trkpt lat="48.59868" lon="-2.5514">
        <ele>33.78</ele>
        <time>2015-04-27T09:10:57Z</time>
      </trkpt>
      <trkpt lat="48.59874" lon="-2.55105">
        <ele>33.78</ele>
        <time>2015-04-27T09:11:19Z</time>
      </trkpt>
      <trkpt lat="48.59875" lon="-2.55099">
        <ele>33.3</ele>
        <time>2015-04-27T09:11:23Z</time>
      </trkpt>
      <trkpt lat="48.59877" lon="-2.55092">
        <ele>33.3</ele>
        <time>2015-04-27T09:11:29Z</time>
      </trkpt>
      <trkpt lat="48.59862" lon="-2.55072">
        <ele>31.86</ele>
        <time>2015-04-27T09:11:52Z</time>
      </trkpt>
      <trkpt lat="48.59858" lon="-2.55067">
        <ele>32.82</ele>
        <time>2015-04-27T09:11:57Z</time>
      </trkpt>
      <trkpt lat="48.59852" lon="-2.55041">
        <ele>30.42</ele>
        <time>2015-04-27T09:12:17Z</time>
      </trkpt>
      <trkpt lat="48.59852" lon="-2.55035">
        <ele>30.42</ele>
        <time>2015-04-27T09:12:21Z</time>
      </trkpt>
      <trkpt lat="48.59852" lon="-2.55022">
        <ele>28.5</ele>
        <time>2015-04-27T09:12:35Z</time>
      </trkpt>
      <trkpt lat="48.59852" lon="-2.55022">
        <ele>28.5</ele>
        <time>2015-04-27T09:12:36Z</time>
      </trkpt>
      <trkpt lat="48.59852" lon="-2.55017">
        <ele>27.05</ele>
        <time>2015-04-27T09:12:40Z</time>
      </trkpt>
      <trkpt lat="48.59851" lon="-2.55008">
        <ele>28.02</ele>
        <time>2015-04-27T09:12:45Z</time>
      </trkpt>
      <trkpt lat="48.59841" lon="-2.54982">
        <ele>29.94</ele>
        <time>2015-04-27T09:13:04Z</time>
      </trkpt>
      <trkpt lat="48.59829" lon="-2.54968">
        <ele>32.82</ele>
        <time>2015-04-27T09:13:24Z</time>
      </trkpt>
      <trkpt lat="48.59827" lon="-2.54961">
        <ele>34.74</ele>
        <time>2015-04-27T09:13:30Z</time>
      </trkpt>
      <trkpt lat="48.59819" lon="-2.54938">
        <ele>35.23</ele>
        <time>2015-04-27T09:13:50Z</time>
      </trkpt>
      <trkpt lat="48.59813" lon="-2.54931">
        <ele>36.67</ele>
        <time>2015-04-27T09:14:06Z</time>
      </trkpt>
      <trkpt lat="48.59808" lon="-2.54924">
        <ele>37.15</ele>
        <time>2015-04-27T09:14:12Z</time>
      </trkpt>
      <trkpt lat="48.59807" lon="-2.54917">
        <ele>37.15</ele>
        <time>2015-04-27T09:14:16Z</time>
      </trkpt>
      <trkpt lat="48.59808" lon="-2.54911">
        <ele>37.15</ele>
        <time>2015-04-27T09:14:19Z</time>
      </trkpt>
      <trkpt lat="48.59799" lon="-2.54879">
        <ele>38.11</ele>
        <time>2015-04-27T09:14:41Z</time>
      </trkpt>
      <trkpt lat="48.59787" lon="-2.54868">
        <ele>39.55</ele>
        <time>2015-04-27T09:14:58Z</time>
      </trkpt>
      <trkpt lat="48.59773" lon="-2.54855">
        <ele>42.44</ele>
        <time>2015-04-27T09:15:18Z</time>
      </trkpt>
      <trkpt lat="48.5976" lon="-2.54844">
        <ele>43.88</ele>
        <time>2015-04-27T09:15:38Z</time>
      </trkpt>
      <trkpt lat="48.59751" lon="-2.54829">
        <ele>44.36</ele>
        <time>2015-04-27T09:15:54Z</time>
      </trkpt>
      <trkpt lat="48.5975" lon="-2.54827">
        <ele>43.88</ele>
        <time>2015-04-27T09:15:56Z</time>
      </trkpt>
      <trkpt lat="48.59738" lon="-2.54811">
        <ele>44.84</ele>
        <time>2015-04-27T09:16:16Z</time>
      </trkpt>
      <trkpt lat="48.59737" lon="-2.54808">
        <ele>44.84</ele>
        <time>2015-04-27T09:16:18Z</time>
      </trkpt>
      <trkpt lat="48.5973" lon="-2.5479">
        <ele>44.36</ele>
        <time>2015-04-27T09:16:29Z</time>
      </trkpt>
      <trkpt lat="48.59728" lon="-2.54765">
        <ele>40.03</ele>
        <time>2015-04-27T09:16:48Z</time>
      </trkpt>
      <trkpt lat="48.59728" lon="-2.54764">
        <ele>43.88</ele>
        <time>2015-04-27T09:16:49Z</time>
      </trkpt>
      <trkpt lat="48.59729" lon="-2.54728">
        <ele>40.03</ele>
        <time>2015-04-27T09:17:11Z</time>
      </trkpt>
      <trkpt lat="48.59729" lon="-2.54726">
        <ele>45.32</ele>
        <time>2015-04-27T09:17:12Z</time>
      </trkpt>
      <trkpt lat="48.59729" lon="-2.5472">
        <ele>49.65</ele>
        <time>2015-04-27T09:17:16Z</time>
      </trkpt>
      <trkpt lat="48.59729" lon="-2.54718">
        <ele>44.84</ele>
        <time>2015-04-27T09:17:18Z</time>
      </trkpt>
      <trkpt lat="48.59729" lon="-2.54716">
        <ele>45.8</ele>
        <time>2015-04-27T09:17:19Z</time>
      </trkpt>
      <trkpt lat="48.59731" lon="-2.54714">
        <ele>45.32</ele>
        <time>2015-04-27T09:17:21Z</time>
      </trkpt>
      <trkpt lat="48.59738" lon="-2.54691">
        <ele>47.24</ele>
        <time>2015-04-27T09:17:38Z</time>
      </trkpt>
      <trkpt lat="48.59739" lon="-2.54686">
        <ele>37.15</ele>
        <time>2015-04-27T09:17:42Z</time>
      </trkpt>
      <trkpt lat="48.59739" lon="-2.54684">
        <ele>50.13</ele>
        <time>2015-04-27T09:17:43Z</time>
      </trkpt>
      <trkpt lat="48.59742" lon="-2.54676">
        <ele>47.24</ele>
        <time>2015-04-27T09:17:50Z</time>
      </trkpt>
      <trkpt lat="48.59743" lon="-2.54651">
        <ele>51.09</ele>
        <time>2015-04-27T09:18:09Z</time>
      </trkpt>
      <trkpt lat="48.59743" lon="-2.54628">
        <ele>53.49</ele>
        <time>2015-04-27T09:18:32Z</time>
      </trkpt>
      <trkpt lat="48.59744" lon="-2.54623">
        <ele>54.45</ele>
        <time>2015-04-27T09:18:36Z</time>
      </trkpt>
      <trkpt lat="48.59742" lon="-2.54597">
        <ele>57.34</ele>
        <time>2015-04-27T09:18:58Z</time>
      </trkpt>
      <trkpt lat="48.59739" lon="-2.5458">
        <ele>58.3</ele>
        <time>2015-04-27T09:19:24Z</time>
      </trkpt>
      <trkpt lat="48.59737" lon="-2.54564">
        <ele>60.22</ele>
        <time>2015-04-27T09:19:43Z</time>
      </trkpt>
      <trkpt lat="48.59734" lon="-2.54539">
        <ele>62.62</ele>
        <time>2015-04-27T09:20:01Z</time>
      </trkpt>
      <trkpt lat="48.59731" lon="-2.5452">
        <ele>64.07</ele>
        <time>2015-04-27T09:20:18Z</time>
      </trkpt>
      <trkpt lat="48.59729" lon="-2.54497">
        <ele>66.47</ele>
        <time>2015-04-27T09:20:35Z</time>
      </trkpt>
      <trkpt lat="48.59729" lon="-2.54494">
        <ele>67.43</ele>
        <time>2015-04-27T09:20:41Z</time>
      </trkpt>
      <trkpt lat="48.59729" lon="-2.54477">
        <ele>70.79</ele>
        <time>2015-04-27T09:20:58Z</time>
      </trkpt>
      <trkpt lat="48.59725" lon="-2.5447">
        <ele>70.79</ele>
        <time>2015-04-27T09:21:17Z</time>
      </trkpt>
      <trkpt lat="48.59725" lon="-2.5447">
        <ele>71.76</ele>
        <time>2015-04-27T09:21:33Z</time>
      </trkpt>
      <trkpt lat="48.59722" lon="-2.54462">
        <ele>71.76</ele>
        <time>2015-04-27T09:21:41Z</time>
      </trkpt>
      <trkpt lat="48.59718" lon="-2.54447">
        <ele>72.72</ele>
        <time>2015-04-27T09:21:51Z</time>
      </trkpt>
      <trkpt lat="48.59717" lon="-2.54428">
        <ele>73.68</ele>
        <time>2015-04-27T09:22:09Z</time>
      </trkpt>
      <trkpt lat="48.59717" lon="-2.54411">
        <ele>73.68</ele>
        <time>2015-04-27T09:22:19Z</time>
      </trkpt>
      <trkpt lat="48.59711" lon="-2.54397">
        <ele>73.68</ele>
        <time>2015-04-27T09:22:30Z</time>
      </trkpt>
      <trkpt lat="48.5971" lon="-2.54394">
        <ele>74.16</ele>
        <time>2015-04-27T09:22:32Z</time>
      </trkpt>
      <trkpt lat="48.59703" lon="-2.54385">
        <ele>73.68</ele>
        <time>2015-04-27T09:22:42Z</time>
      </trkpt>
      <trkpt lat="48.59702" lon="-2.5437">
        <ele>71.76</ele>
        <time>2015-04-27T09:23:05Z</time>
      </trkpt>
      <trkpt lat="48.59703" lon="-2.5435">
        <ele>70.31</ele>
        <time>2015-04-27T09:23:23Z</time>
      </trkpt>
      <trkpt lat="48.59704" lon="-2.54309">
        <ele>68.39</ele>
        <time>2015-04-27T09:23:47Z</time>
      </trkpt>
      <trkpt lat="48.59698" lon="-2.54285">
        <ele>68.39</ele>
        <time>2015-04-27T09:24:02Z</time>
      </trkpt>
      <trkpt lat="48.59689" lon="-2.54262">
        <ele>67.91</ele>
        <time>2015-04-27T09:24:22Z</time>
      </trkpt>
      <trkpt lat="48.59686" lon="-2.54246">
        <ele>65.51</ele>
        <time>2015-04-27T09:24:44Z</time>
      </trkpt>
      <trkpt lat="48.59684" lon="-2.54239">
        <ele>64.07</ele>
        <time>2015-04-27T09:24:49Z</time>
      </trkpt>
      <trkpt lat="48.59683" lon="-2.54237">
        <ele>64.07</ele>
        <time>2015-04-27T09:24:51Z</time>
      </trkpt>
      <trkpt lat="48.5968" lon="-2.54208">
        <ele>60.7</ele>
        <time>2015-04-27T09:25:11Z</time>
      </trkpt>
      <trkpt lat="48.59683" lon="-2.54193">
        <ele>58.3</ele>
        <time>2015-04-27T09:25:25Z</time>
      </trkpt>
      <trkpt lat="48.59681" lon="-2.54181">
        <ele>56.86</ele>
        <time>2015-04-27T09:25:41Z</time>
      </trkpt>
      <trkpt lat="48.5968" lon="-2.54177">
        <ele>55.41</ele>
        <time>2015-04-27T09:26:02Z</time>
      </trkpt>
      <trkpt lat="48.59683" lon="-2.54177">
        <ele>53.01</ele>
        <time>2015-04-27T09:26:14Z</time>
      </trkpt>
      <trkpt lat="48.59684" lon="-2.54177">
        <ele>50.61</ele>
        <time>2015-04-27T09:26:40Z</time>
      </trkpt>
      <trkpt lat="48.59684" lon="-2.54176">
        <ele>47.72</ele>
        <time>2015-04-27T09:26:57Z</time>
      </trkpt>
      <trkpt lat="48.59684" lon="-2.54176">
        <ele>44.84</ele>
        <time>2015-04-27T09:27:16Z</time>
      </trkpt>
      <trkpt lat="48.59685" lon="-2.54172">
        <ele>41.95</ele>
        <time>2015-04-27T09:27:37Z</time>
      </trkpt>
      <trkpt lat="48.59688" lon="-2.54163">
        <ele>39.55</ele>
        <time>2015-04-27T09:27:56Z</time>
      </trkpt>
      <trkpt lat="48.59691" lon="-2.54145">
        <ele>37.63</ele>
        <time>2015-04-27T09:28:11Z</time>
      </trkpt>
      <trkpt lat="48.59694" lon="-2.54125">
        <ele>34.74</ele>
        <time>2015-04-27T09:28:26Z</time>
      </trkpt>
      <trkpt lat="48.59697" lon="-2.54107">
        <ele>32.34</ele>
        <time>2015-04-27T09:28:40Z</time>
      </trkpt>
      <trkpt lat="48.59697" lon="-2.54097">
        <ele>31.86</ele>
        <time>2015-04-27T09:28:48Z</time>
      </trkpt>
      <trkpt lat="48.59696" lon="-2.54085">
        <ele>30.9</ele>
        <time>2015-04-27T09:28:56Z</time>
      </trkpt>
      <trkpt lat="48.59691" lon="-2.5405">
        <ele>29.94</ele>
        <time>2015-04-27T09:29:19Z</time>
      </trkpt>
      <trkpt lat="48.59689" lon="-2.54042">
        <ele>29.94</ele>
        <time>2015-04-27T09:29:25Z</time>
      </trkpt>
      <trkpt lat="48.59687" lon="-2.5404">
        <ele>30.42</ele>
        <time>2015-04-27T09:29:27Z</time>
      </trkpt>
      <trkpt lat="48.59687" lon="-2.54038">
        <ele>30.42</ele>
        <time>2015-04-27T09:29:29Z</time>
      </trkpt>
      <trkpt lat="48.59675" lon="-2.54009">
        <ele>29.94</ele>
        <time>2015-04-27T09:29:49Z</time>
      </trkpt>
      <trkpt lat="48.59667" lon="-2.53985">
        <ele>29.46</ele>
        <time>2015-04-27T09:30:09Z</time>
      </trkpt>
      <trkpt lat="48.59658" lon="-2.53953">
        <ele>28.98</ele>
        <time>2015-04-27T09:30:30Z</time>
      </trkpt>
      <trkpt lat="48.59651" lon="-2.53923">
        <ele>28.5</ele>
        <time>2015-04-27T09:30:49Z</time>
      </trkpt>
      <trkpt lat="48.59657" lon="-2.53884">
        <ele>27.05</ele>
        <time>2015-04-27T09:31:12Z</time>
      </trkpt>
      <trkpt lat="48.59657" lon="-2.53879">
        <ele>26.57</ele>
        <time>2015-04-27T09:31:15Z</time>
      </trkpt>
      <trkpt lat="48.59656" lon="-2.53856">
        <ele>26.57</ele>
        <time>2015-04-27T09:31:28Z</time>
      </trkpt>
      <trkpt lat="48.59653" lon="-2.53831">
        <ele>26.09</ele>
        <time>2015-04-27T09:31:42Z</time>
      </trkpt>
      <trkpt lat="48.59653" lon="-2.53814">
        <ele>24.65</ele>
        <time>2015-04-27T09:31:53Z</time>
      </trkpt>
      <trkpt lat="48.59654" lon="-2.53799">
        <ele>21.77</ele>
        <time>2015-04-27T09:32:07Z</time>
      </trkpt>
      <trkpt lat="48.59654" lon="-2.53795">
        <ele>20.32</ele>
        <time>2015-04-27T09:32:12Z</time>
      </trkpt>
      <trkpt lat="48.59655" lon="-2.53791">
        <ele>17.92</ele>
        <time>2015-04-27T09:32:17Z</time>
      </trkpt>
      <trkpt lat="48.59658" lon="-2.5379">
        <ele>16.96</ele>
        <time>2015-04-27T09:32:24Z</time>
      </trkpt>
      <trkpt lat="48.59658" lon="-2.5379">
        <ele>16</ele>
        <time>2015-04-27T09:32:43Z</time>
      </trkpt>
      <trkpt lat="48.59654" lon="-2.53782">
        <ele>15.52</ele>
        <time>2015-04-27T09:32:58Z</time>
      </trkpt>
      <trkpt lat="48.5965" lon="-2.53783">
        <ele>16</ele>
        <time>2015-04-27T09:33:20Z</time>
      </trkpt>
      <trkpt lat="48.5965" lon="-2.53783">
        <ele>15.04</ele>
        <time>2015-04-27T09:33:47Z</time>
      </trkpt>
      <trkpt lat="48.5965" lon="-2.53783">
        <ele>16.48</ele>
        <time>2015-04-27T09:34:24Z</time>
      </trkpt>
      <trkpt lat="48.5965" lon="-2.53783">
        <ele>14.56</ele>
        <time>2015-04-27T09:34:34Z</time>
      </trkpt>
      <trkpt lat="48.5965" lon="-2.53783">
        <ele>16</ele>
        <time>2015-04-27T09:34:37Z</time>
      </trkpt>
      <trkpt lat="48.5965" lon="-2.53783">
        <ele>16.48</ele>
        <time>2015-04-27T09:35:22Z</time>
      </trkpt>
      <trkpt lat="48.5965" lon="-2.53782">
        <ele>16.48</ele>
        <time>2015-04-27T09:36:37Z</time>
      </trkpt>
      <trkpt lat="48.5965" lon="-2.53782">
        <ele>16</ele>
        <time>2015-04-27T09:36:41Z</time>
      </trkpt>
      <trkpt lat="48.59647" lon="-2.53784">
        <ele>16.48</ele>
        <time>2015-04-27T09:36:44Z</time>
      </trkpt>
      <trkpt lat="48.5963" lon="-2.53787">
        <ele>17.44</ele>
        <time>2015-04-27T09:37:01Z</time>
      </trkpt>
      <trkpt lat="48.59628" lon="-2.53788">
        <ele>17.44</ele>
        <time>2015-04-27T09:37:03Z</time>
      </trkpt>
      <trkpt lat="48.5962" lon="-2.53786">
        <ele>18.88</ele>
        <time>2015-04-27T09:37:09Z</time>
      </trkpt>
      <trkpt lat="48.59616" lon="-2.53786">
        <ele>19.36</ele>
        <time>2015-04-27T09:37:14Z</time>
      </trkpt>
      <trkpt lat="48.59609" lon="-2.53785">
        <ele>19.36</ele>
        <time>2015-04-27T09:37:20Z</time>
      </trkpt>
      <trkpt lat="48.59589" lon="-2.53787">
        <ele>20.81</ele>
        <time>2015-04-27T09:37:39Z</time>
      </trkpt>
      <trkpt lat="48.59573" lon="-2.5379">
        <ele>22.25</ele>
        <time>2015-04-27T09:37:55Z</time>
      </trkpt>
      <trkpt lat="48.59568" lon="-2.53788">
        <ele>23.21</ele>
        <time>2015-04-27T09:38:00Z</time>
      </trkpt>
      <trkpt lat="48.59565" lon="-2.53787">
        <ele>27.05</ele>
        <time>2015-04-27T09:38:03Z</time>
      </trkpt>
      <trkpt lat="48.59563" lon="-2.53787">
        <ele>24.17</ele>
        <time>2015-04-27T09:38:05Z</time>
      </trkpt>
      <trkpt lat="48.59543" lon="-2.53781">
        <ele>23.69</ele>
        <time>2015-04-27T09:38:25Z</time>
      </trkpt>
      <trkpt lat="48.59543" lon="-2.53781">
        <ele>24.65</ele>
        <time>2015-04-27T09:40:04Z</time>
      </trkpt>
      <trkpt lat="48.59543" lon="-2.53781">
        <ele>27.53</ele>
        <time>2015-04-27T09:40:05Z</time>
      </trkpt>
      <trkpt lat="48.59543" lon="-2.53781">
        <ele>26.57</ele>
        <time>2015-04-27T09:40:06Z</time>
      </trkpt>
      <trkpt lat="48.59511" lon="-2.53766">
        <ele>27.05</ele>
        <time>2015-04-27T09:40:08Z</time>
      </trkpt>
      <trkpt lat="48.59512" lon="-2.53766">
        <ele>26.57</ele>
        <time>2015-04-27T09:40:42Z</time>
      </trkpt>
      <trkpt lat="48.59512" lon="-2.53768">
        <ele>27.05</ele>
        <time>2015-04-27T09:40:44Z</time>
      </trkpt>
      <trkpt lat="48.59498" lon="-2.53763">
        <ele>30.9</ele>
        <time>2015-04-27T09:40:56Z</time>
      </trkpt>
      <trkpt lat="48.59492" lon="-2.53762">
        <ele>29.46</ele>
        <time>2015-04-27T09:41:01Z</time>
      </trkpt>
      <trkpt lat="48.59479" lon="-2.53789">
        <ele>32.82</ele>
        <time>2015-04-27T09:41:20Z</time>
      </trkpt>
      <trkpt lat="48.59468" lon="-2.53818">
        <ele>36.19</ele>
        <time>2015-04-27T09:41:40Z</time>
      </trkpt>
      <trkpt lat="48.59464" lon="-2.53831">
        <ele>37.15</ele>
        <time>2015-04-27T09:41:48Z</time>
      </trkpt>
      <trkpt lat="48.59461" lon="-2.53848">
        <ele>39.07</ele>
        <time>2015-04-27T09:41:58Z</time>
      </trkpt>
      <trkpt lat="48.59459" lon="-2.53858">
        <ele>40.51</ele>
        <time>2015-04-27T09:42:04Z</time>
      </trkpt>
      <trkpt lat="48.59456" lon="-2.53879">
        <ele>42.44</ele>
        <time>2015-04-27T09:42:16Z</time>
      </trkpt>
      <trkpt lat="48.59457" lon="-2.53891">
        <ele>43.88</ele>
        <time>2015-04-27T09:42:24Z</time>
      </trkpt>
      <trkpt lat="48.59457" lon="-2.53917">
        <ele>46.76</ele>
        <time>2015-04-27T09:42:40Z</time>
      </trkpt>
      <trkpt lat="48.5946" lon="-2.53948">
        <ele>48.68</ele>
        <time>2015-04-27T09:43:03Z</time>
      </trkpt>
      <trkpt lat="48.5946" lon="-2.53966">
        <ele>50.13</ele>
        <time>2015-04-27T09:43:17Z</time>
      </trkpt>
      <trkpt lat="48.59461" lon="-2.5397">
        <ele>50.13</ele>
        <time>2015-04-27T09:43:20Z</time>
      </trkpt>
      <trkpt lat="48.59462" lon="-2.5398">
        <ele>50.61</ele>
        <time>2015-04-27T09:43:27Z</time>
      </trkpt>
      <trkpt lat="48.59463" lon="-2.53997">
        <ele>50.61</ele>
        <time>2015-04-27T09:43:39Z</time>
      </trkpt>
      <trkpt lat="48.59462" lon="-2.54009">
        <ele>51.57</ele>
        <time>2015-04-27T09:43:46Z</time>
      </trkpt>
      <trkpt lat="48.59462" lon="-2.54018">
        <ele>52.05</ele>
        <time>2015-04-27T09:43:52Z</time>
      </trkpt>
      <trkpt lat="48.59463" lon="-2.54033">
        <ele>53.01</ele>
        <time>2015-04-27T09:44:00Z</time>
      </trkpt>
      <trkpt lat="48.59463" lon="-2.54047">
        <ele>53.49</ele>
        <time>2015-04-27T09:44:19Z</time>
      </trkpt>
      <trkpt lat="48.59467" lon="-2.54075">
        <ele>53.49</ele>
        <time>2015-04-27T09:44:38Z</time>
      </trkpt>
      <trkpt lat="48.59469" lon="-2.54089">
        <ele>53.97</ele>
        <time>2015-04-27T09:44:46Z</time>
      </trkpt>
      <trkpt lat="48.59479" lon="-2.54126">
        <ele>54.45</ele>
        <time>2015-04-27T09:45:08Z</time>
      </trkpt>
      <trkpt lat="48.59483" lon="-2.54139">
        <ele>53.97</ele>
        <time>2015-04-27T09:45:18Z</time>
      </trkpt>
      <trkpt lat="48.59485" lon="-2.54154">
        <ele>54.93</ele>
        <time>2015-04-27T09:45:29Z</time>
      </trkpt>
      <trkpt lat="48.59497" lon="-2.54184">
        <ele>54.93</ele>
        <time>2015-04-27T09:45:52Z</time>
      </trkpt>
      <trkpt lat="48.59498" lon="-2.54189">
        <ele>56.37</ele>
        <time>2015-04-27T09:45:55Z</time>
      </trkpt>
      <trkpt lat="48.59499" lon="-2.54192">
        <ele>54.45</ele>
        <time>2015-04-27T09:45:57Z</time>
      </trkpt>
      <trkpt lat="48.59499" lon="-2.54197">
        <ele>55.89</ele>
        <time>2015-04-27T09:46:00Z</time>
      </trkpt>
      <trkpt lat="48.59501" lon="-2.54204">
        <ele>49.16</ele>
        <time>2015-04-27T09:46:04Z</time>
      </trkpt>
      <trkpt lat="48.59501" lon="-2.54206">
        <ele>55.89</ele>
        <time>2015-04-27T09:46:05Z</time>
      </trkpt>
      <trkpt lat="48.59502" lon="-2.54212">
        <ele>51.09</ele>
        <time>2015-04-27T09:46:10Z</time>
      </trkpt>
      <trkpt lat="48.59502" lon="-2.54213">
        <ele>56.37</ele>
        <time>2015-04-27T09:46:11Z</time>
      </trkpt>
      <trkpt lat="48.59502" lon="-2.5422">
        <ele>53.49</ele>
        <time>2015-04-27T09:46:15Z</time>
      </trkpt>
      <trkpt lat="48.59503" lon="-2.54225">
        <ele>59.26</ele>
        <time>2015-04-27T09:46:18Z</time>
      </trkpt>
      <trkpt lat="48.59503" lon="-2.54227">
        <ele>43.4</ele>
        <time>2015-04-27T09:46:19Z</time>
      </trkpt>
      <trkpt lat="48.59503" lon="-2.54228">
        <ele>57.34</ele>
        <time>2015-04-27T09:46:20Z</time>
      </trkpt>
      <trkpt lat="48.59504" lon="-2.5423">
        <ele>54.45</ele>
        <time>2015-04-27T09:46:22Z</time>
      </trkpt>
      <trkpt lat="48.59504" lon="-2.54232">
        <ele>47.24</ele>
        <time>2015-04-27T09:46:23Z</time>
      </trkpt>
      <trkpt lat="48.59504" lon="-2.54233">
        <ele>54.93</ele>
        <time>2015-04-27T09:46:24Z</time>
      </trkpt>
      <trkpt lat="48.59504" lon="-2.54235">
        <ele>60.7</ele>
        <time>2015-04-27T09:46:25Z</time>
      </trkpt>
      <trkpt lat="48.59504" lon="-2.54236">
        <ele>55.41</ele>
        <time>2015-04-27T09:46:26Z</time>
      </trkpt>
      <trkpt lat="48.59505" lon="-2.54241">
        <ele>47.24</ele>
        <time>2015-04-27T09:46:29Z</time>
      </trkpt>
      <trkpt lat="48.59505" lon="-2.54243">
        <ele>54.93</ele>
        <time>2015-04-27T09:46:30Z</time>
      </trkpt>
      <trkpt lat="48.59505" lon="-2.54244">
        <ele>49.65</ele>
        <time>2015-04-27T09:46:31Z</time>
      </trkpt>
      <trkpt lat="48.59504" lon="-2.54246">
        <ele>55.89</ele>
        <time>2015-04-27T09:46:32Z</time>
      </trkpt>
      <trkpt lat="48.59505" lon="-2.54272">
        <ele>52.53</ele>
        <time>2015-04-27T09:46:48Z</time>
      </trkpt>
      <trkpt lat="48.59505" lon="-2.54274">
        <ele>56.37</ele>
        <time>2015-04-27T09:46:49Z</time>
      </trkpt>
      <trkpt lat="48.59505" lon="-2.54276">
        <ele>53.01</ele>
        <time>2015-04-27T09:46:50Z</time>
      </trkpt>
      <trkpt lat="48.59505" lon="-2.54279">
        <ele>52.05</ele>
        <time>2015-04-27T09:46:52Z</time>
      </trkpt>
      <trkpt lat="48.59505" lon="-2.54281">
        <ele>52.53</ele>
        <time>2015-04-27T09:46:55Z</time>
      </trkpt>
      <trkpt lat="48.59505" lon="-2.54289">
        <ele>51.57</ele>
        <time>2015-04-27T09:46:59Z</time>
      </trkpt>
      <trkpt lat="48.59502" lon="-2.54327">
        <ele>51.57</ele>
        <time>2015-04-27T09:47:20Z</time>
      </trkpt>
      <trkpt lat="48.595" lon="-2.54338">
        <ele>51.57</ele>
        <time>2015-04-27T09:47:26Z</time>
      </trkpt>
      <trkpt lat="48.59501" lon="-2.54342">
        <ele>51.09</ele>
        <time>2015-04-27T09:47:28Z</time>
      </trkpt>
      <trkpt lat="48.59494" lon="-2.54381">
        <ele>51.09</ele>
        <time>2015-04-27T09:47:50Z</time>
      </trkpt>
      <trkpt lat="48.59496" lon="-2.54421">
        <ele>50.61</ele>
        <time>2015-04-27T09:48:12Z</time>
      </trkpt>
      <trkpt lat="48.59496" lon="-2.54437">
        <ele>50.61</ele>
        <time>2015-04-27T09:48:21Z</time>
      </trkpt>
      <trkpt lat="48.59498" lon="-2.54456">
        <ele>50.13</ele>
        <time>2015-04-27T09:48:32Z</time>
      </trkpt>
      <trkpt lat="48.59498" lon="-2.54471">
        <ele>49.65</ele>
        <time>2015-04-27T09:48:40Z</time>
      </trkpt>
      <trkpt lat="48.59497" lon="-2.54507">
        <ele>48.2</ele>
        <time>2015-04-27T09:49:01Z</time>
      </trkpt>
      <trkpt lat="48.59498" lon="-2.5451">
        <ele>47.72</ele>
        <time>2015-04-27T09:49:03Z</time>
      </trkpt>
      <trkpt lat="48.59498" lon="-2.54544">
        <ele>46.28</ele>
        <time>2015-04-27T09:49:23Z</time>
      </trkpt>
      <trkpt lat="48.59498" lon="-2.54572">
        <ele>45.8</ele>
        <time>2015-04-27T09:49:40Z</time>
      </trkpt>
      <trkpt lat="48.59497" lon="-2.54576">
        <ele>45.32</ele>
        <time>2015-04-27T09:49:42Z</time>
      </trkpt>
      <trkpt lat="48.59498" lon="-2.54604">
        <ele>43.88</ele>
        <time>2015-04-27T09:50:00Z</time>
      </trkpt>
      <trkpt lat="48.595" lon="-2.54635">
        <ele>42.44</ele>
        <time>2015-04-27T09:50:17Z</time>
      </trkpt>
      <trkpt lat="48.59498" lon="-2.5467">
        <ele>40.99</ele>
        <time>2015-04-27T09:50:39Z</time>
      </trkpt>
      <trkpt lat="48.59499" lon="-2.54677">
        <ele>40.51</ele>
        <time>2015-04-27T09:50:43Z</time>
      </trkpt>
      <trkpt lat="48.595" lon="-2.54692">
        <ele>38.11</ele>
        <time>2015-04-27T09:50:52Z</time>
      </trkpt>
      <trkpt lat="48.595" lon="-2.54695">
        <ele>39.07</ele>
        <time>2015-04-27T09:50:54Z</time>
      </trkpt>
      <trkpt lat="48.59501" lon="-2.54713">
        <ele>36.67</ele>
        <time>2015-04-27T09:51:04Z</time>
      </trkpt>
      <trkpt lat="48.59502" lon="-2.54723">
        <ele>36.19</ele>
        <time>2015-04-27T09:51:10Z</time>
      </trkpt>
      <trkpt lat="48.59504" lon="-2.54756">
        <ele>33.3</ele>
        <time>2015-04-27T09:51:31Z</time>
      </trkpt>
      <trkpt lat="48.59505" lon="-2.54759">
        <ele>32.82</ele>
        <time>2015-04-27T09:51:33Z</time>
      </trkpt>
      <trkpt lat="48.59508" lon="-2.54768">
        <ele>32.82</ele>
        <time>2015-04-27T09:51:39Z</time>
      </trkpt>
      <trkpt lat="48.59508" lon="-2.54781">
        <ele>31.38</ele>
        <time>2015-04-27T09:51:52Z</time>
      </trkpt>
      <trkpt lat="48.59487" lon="-2.54798">
        <ele>29.94</ele>
        <time>2015-04-27T09:52:15Z</time>
      </trkpt>
      <trkpt lat="48.59484" lon="-2.54808">
        <ele>29.46</ele>
        <time>2015-04-27T09:52:21Z</time>
      </trkpt>
      <trkpt lat="48.59482" lon="-2.54811">
        <ele>29.46</ele>
        <time>2015-04-27T09:52:24Z</time>
      </trkpt>
      <trkpt lat="48.59481" lon="-2.54816">
        <ele>28.98</ele>
        <time>2015-04-27T09:52:48Z</time>
      </trkpt>
      <trkpt lat="48.5948" lon="-2.54816">
        <ele>28.02</ele>
        <time>2015-04-27T09:53:38Z</time>
      </trkpt>
      <trkpt lat="48.59468" lon="-2.54837">
        <ele>27.05</ele>
        <time>2015-04-27T09:53:53Z</time>
      </trkpt>
      <trkpt lat="48.59467" lon="-2.54842">
        <ele>27.05</ele>
        <time>2015-04-27T09:53:57Z</time>
      </trkpt>
      <trkpt lat="48.59467" lon="-2.54845">
        <ele>27.05</ele>
        <time>2015-04-27T09:53:59Z</time>
      </trkpt>
      <trkpt lat="48.59464" lon="-2.54848">
        <ele>26.57</ele>
        <time>2015-04-27T09:54:02Z</time>
      </trkpt>
      <trkpt lat="48.59456" lon="-2.54859">
        <ele>26.57</ele>
        <time>2015-04-27T09:54:09Z</time>
      </trkpt>
      <trkpt lat="48.59452" lon="-2.54865">
        <ele>26.09</ele>
        <time>2015-04-27T09:54:13Z</time>
      </trkpt>
      <trkpt lat="48.59433" lon="-2.54889">
        <ele>25.13</ele>
        <time>2015-04-27T09:54:33Z</time>
      </trkpt>
      <trkpt lat="48.59432" lon="-2.54889">
        <ele>25.61</ele>
        <time>2015-04-27T09:54:34Z</time>
      </trkpt>
      <trkpt lat="48.59423" lon="-2.549">
        <ele>31.38</ele>
        <time>2015-04-27T09:54:45Z</time>
      </trkpt>
      <trkpt lat="48.59421" lon="-2.54901">
        <ele>27.53</ele>
        <time>2015-04-27T09:54:46Z</time>
      </trkpt>
      <trkpt lat="48.5942" lon="-2.54902">
        <ele>25.13</ele>
        <time>2015-04-27T09:54:47Z</time>
      </trkpt>
      <trkpt lat="48.59419" lon="-2.54904">
        <ele>25.13</ele>
        <time>2015-04-27T09:54:49Z</time>
      </trkpt>
      <trkpt lat="48.59414" lon="-2.54909">
        <ele>24.65</ele>
        <time>2015-04-27T09:54:54Z</time>
      </trkpt>
      <trkpt lat="48.59388" lon="-2.54936">
        <ele>24.17</ele>
        <time>2015-04-27T09:55:19Z</time>
      </trkpt>
      <trkpt lat="48.59385" lon="-2.54938">
        <ele>24.17</ele>
        <time>2015-04-27T09:55:22Z</time>
      </trkpt>
      <trkpt lat="48.59369" lon="-2.54951">
        <ele>24.17</ele>
        <time>2015-04-27T09:55:36Z</time>
      </trkpt>
      <trkpt lat="48.59365" lon="-2.54952">
        <ele>23.69</ele>
        <time>2015-04-27T09:55:40Z</time>
      </trkpt>
      <trkpt lat="48.5936" lon="-2.54954">
        <ele>24.17</ele>
        <time>2015-04-27T09:55:44Z</time>
      </trkpt>
      <trkpt lat="48.59355" lon="-2.54955">
        <ele>23.69</ele>
        <time>2015-04-27T09:55:48Z</time>
      </trkpt>
      <trkpt lat="48.59326" lon="-2.54974">
        <ele>22.73</ele>
        <time>2015-04-27T09:56:12Z</time>
      </trkpt>
      <trkpt lat="48.59322" lon="-2.5498">
        <ele>21.77</ele>
        <time>2015-04-27T09:56:22Z</time>
      </trkpt>
      <trkpt lat="48.59313" lon="-2.54988">
        <ele>21.77</ele>
        <time>2015-04-27T09:56:31Z</time>
      </trkpt>
      <trkpt lat="48.59289" lon="-2.5501">
        <ele>21.29</ele>
        <time>2015-04-27T09:56:53Z</time>
      </trkpt>
      <trkpt lat="48.59272" lon="-2.55039">
        <ele>20.81</ele>
        <time>2015-04-27T09:57:13Z</time>
      </trkpt>
      <trkpt lat="48.59257" lon="-2.55058">
        <ele>20.32</ele>
        <time>2015-04-27T09:57:28Z</time>
      </trkpt>
      <trkpt lat="48.59254" lon="-2.55064">
        <ele>19.84</ele>
        <time>2015-04-27T09:57:32Z</time>
      </trkpt>
      <trkpt lat="48.59241" lon="-2.55082">
        <ele>20.32</ele>
        <time>2015-04-27T09:57:46Z</time>
      </trkpt>
      <trkpt lat="48.59237" lon="-2.55086">
        <ele>19.36</ele>
        <time>2015-04-27T09:57:50Z</time>
      </trkpt>
      <trkpt lat="48.59224" lon="-2.55104">
        <ele>19.36</ele>
        <time>2015-04-27T09:58:04Z</time>
      </trkpt>
      <trkpt lat="48.59204" lon="-2.55131">
        <ele>18.88</ele>
        <time>2015-04-27T09:58:25Z</time>
      </trkpt>
      <trkpt lat="48.5919" lon="-2.55143">
        <ele>18.4</ele>
        <time>2015-04-27T09:58:38Z</time>
      </trkpt>
      <trkpt lat="48.59174" lon="-2.5516">
        <ele>17.44</ele>
        <time>2015-04-27T09:58:54Z</time>
      </trkpt>
      <trkpt lat="48.59155" lon="-2.55189">
        <ele>16.48</ele>
        <time>2015-04-27T09:59:17Z</time>
      </trkpt>
      <trkpt lat="48.59152" lon="-2.55194">
        <ele>16</ele>
        <time>2015-04-27T09:59:22Z</time>
      </trkpt>
      <trkpt lat="48.59148" lon="-2.55199">
        <ele>16.48</ele>
        <time>2015-04-27T09:59:27Z</time>
      </trkpt>
      <trkpt lat="48.5914" lon="-2.55205">
        <ele>16</ele>
        <time>2015-04-27T09:59:35Z</time>
      </trkpt>
      <trkpt lat="48.5912" lon="-2.55228">
        <ele>15.52</ele>
        <time>2015-04-27T09:59:57Z</time>
      </trkpt>
      <trkpt lat="48.59118" lon="-2.55228">
        <ele>15.52</ele>
        <time>2015-04-27T09:59:58Z</time>
      </trkpt>
      <trkpt lat="48.59113" lon="-2.55234">
        <ele>15.52</ele>
        <time>2015-04-27T10:00:03Z</time>
      </trkpt>
      <trkpt lat="48.59089" lon="-2.55256">
        <ele>15.04</ele>
        <time>2015-04-27T10:00:27Z</time>
      </trkpt>
      <trkpt lat="48.59071" lon="-2.55267">
        <ele>14.08</ele>
        <time>2015-04-27T10:00:43Z</time>
      </trkpt>
      <trkpt lat="48.59065" lon="-2.55275">
        <ele>14.56</ele>
        <time>2015-04-27T10:00:50Z</time>
      </trkpt>
      <trkpt lat="48.59063" lon="-2.55278">
        <ele>14.56</ele>
        <time>2015-04-27T10:00:52Z</time>
      </trkpt>
      <trkpt lat="48.59055" lon="-2.55283">
        <ele>14.56</ele>
        <time>2015-04-27T10:01:00Z</time>
      </trkpt>
      <trkpt lat="48.59051" lon="-2.55285">
        <ele>14.08</ele>
        <time>2015-04-27T10:01:03Z</time>
      </trkpt>
      <trkpt lat="48.59039" lon="-2.55296">
        <ele>12.15</ele>
        <time>2015-04-27T10:01:15Z</time>
      </trkpt>
      <trkpt lat="48.59035" lon="-2.55301">
        <ele>11.67</ele>
        <time>2015-04-27T10:01:19Z</time>
      </trkpt>
      <trkpt lat="48.59017" lon="-2.55319">
        <ele>10.71</ele>
        <time>2015-04-27T10:01:39Z</time>
      </trkpt>
      <trkpt lat="48.59001" lon="-2.55341">
        <ele>11.67</ele>
        <time>2015-04-27T10:02:00Z</time>
      </trkpt>
      <trkpt lat="48.58992" lon="-2.55347">
        <ele>11.19</ele>
        <time>2015-04-27T10:02:11Z</time>
      </trkpt>
      <trkpt lat="48.58989" lon="-2.55351">
        <ele>10.71</ele>
        <time>2015-04-27T10:02:15Z</time>
      </trkpt>
      <trkpt lat="48.58975" lon="-2.55375">
        <ele>11.19</ele>
        <time>2015-04-27T10:02:36Z</time>
      </trkpt>
      <trkpt lat="48.58973" lon="-2.55376">
        <ele>11.67</ele>
        <time>2015-04-27T10:02:38Z</time>
      </trkpt>
      <trkpt lat="48.58971" lon="-2.55377">
        <ele>11.67</ele>
        <time>2015-04-27T10:02:40Z</time>
      </trkpt>
      <trkpt lat="48.58971" lon="-2.55381">
        <ele>11.67</ele>
        <time>2015-04-27T10:02:42Z</time>
      </trkpt>
      <trkpt lat="48.5897" lon="-2.55384">
        <ele>12.15</ele>
        <time>2015-04-27T10:02:44Z</time>
      </trkpt>
      <trkpt lat="48.58966" lon="-2.55393">
        <ele>12.15</ele>
        <time>2015-04-27T10:02:59Z</time>
      </trkpt>
      <trkpt lat="48.58957" lon="-2.55397">
        <ele>12.15</ele>
        <time>2015-04-27T10:03:06Z</time>
      </trkpt>
      <trkpt lat="48.5895" lon="-2.55404">
        <ele>12.15</ele>
        <time>2015-04-27T10:03:13Z</time>
      </trkpt>
      <trkpt lat="48.58932" lon="-2.55421">
        <ele>12.15</ele>
        <time>2015-04-27T10:03:30Z</time>
      </trkpt>
      <trkpt lat="48.58929" lon="-2.55427">
        <ele>12.15</ele>
        <time>2015-04-27T10:03:34Z</time>
      </trkpt>
      <trkpt lat="48.58926" lon="-2.55431">
        <ele>12.63</ele>
        <time>2015-04-27T10:03:37Z</time>
      </trkpt>
      <trkpt lat="48.58923" lon="-2.55438">
        <ele>13.12</ele>
        <time>2015-04-27T10:03:42Z</time>
      </trkpt>
      <trkpt lat="48.58922" lon="-2.55439">
        <ele>12.63</ele>
        <time>2015-04-27T10:03:44Z</time>
      </trkpt>
      <trkpt lat="48.58917" lon="-2.55442">
        <ele>12.63</ele>
        <time>2015-04-27T10:03:49Z</time>
      </trkpt>
      <trkpt lat="48.58912" lon="-2.55456">
        <ele>12.15</ele>
        <time>2015-04-27T10:04:01Z</time>
      </trkpt>
      <trkpt lat="48.589" lon="-2.55471">
        <ele>12.63</ele>
        <time>2015-04-27T10:04:14Z</time>
      </trkpt>
      <trkpt lat="48.58884" lon="-2.5549">
        <ele>12.15</ele>
        <time>2015-04-27T10:04:33Z</time>
      </trkpt>
      <trkpt lat="48.58871" lon="-2.555">
        <ele>12.15</ele>
        <time>2015-04-27T10:04:52Z</time>
      </trkpt>
      <trkpt lat="48.58869" lon="-2.55505">
        <ele>12.15</ele>
        <time>2015-04-27T10:05:26Z</time>
      </trkpt>
      <trkpt lat="48.58867" lon="-2.55508">
        <ele>12.15</ele>
        <time>2015-04-27T10:05:29Z</time>
      </trkpt>
      <trkpt lat="48.58862" lon="-2.5552">
        <ele>12.15</ele>
        <time>2015-04-27T10:05:36Z</time>
      </trkpt>
      <trkpt lat="48.58857" lon="-2.55528">
        <ele>12.15</ele>
        <time>2015-04-27T10:05:42Z</time>
      </trkpt>
      <trkpt lat="48.58837" lon="-2.55549">
        <ele>11.19</ele>
        <time>2015-04-27T10:06:02Z</time>
      </trkpt>
      <trkpt lat="48.5882" lon="-2.55569">
        <ele>11.19</ele>
        <time>2015-04-27T10:06:20Z</time>
      </trkpt>
      <trkpt lat="48.58809" lon="-2.55583">
        <ele>11.19</ele>
        <time>2015-04-27T10:06:31Z</time>
      </trkpt>
      <trkpt lat="48.58806" lon="-2.55586">
        <ele>11.19</ele>
        <time>2015-04-27T10:06:34Z</time>
      </trkpt>
      <trkpt lat="48.58797" lon="-2.55598">
        <ele>11.19</ele>
        <time>2015-04-27T10:06:44Z</time>
      </trkpt>
      <trkpt lat="48.58793" lon="-2.55604">
        <ele>11.19</ele>
        <time>2015-04-27T10:06:48Z</time>
      </trkpt>
      <trkpt lat="48.58775" lon="-2.55627">
        <ele>10.71</ele>
        <time>2015-04-27T10:07:08Z</time>
      </trkpt>
      <trkpt lat="48.58774" lon="-2.55628">
        <ele>10.23</ele>
        <time>2015-04-27T10:07:09Z</time>
      </trkpt>
      <trkpt lat="48.58754" lon="-2.55657">
        <ele>10.23</ele>
        <time>2015-04-27T10:07:32Z</time>
      </trkpt>
      <trkpt lat="48.5873" lon="-2.55676">
        <ele>9.75</ele>
        <time>2015-04-27T10:07:55Z</time>
      </trkpt>
      <trkpt lat="48.58717" lon="-2.557">
        <ele>9.27</ele>
        <time>2015-04-27T10:08:12Z</time>
      </trkpt>
      <trkpt lat="48.58716" lon="-2.55702">
        <ele>8.79</ele>
        <time>2015-04-27T10:08:13Z</time>
      </trkpt>
      <trkpt lat="48.58694" lon="-2.55724">
        <ele>4.94</ele>
        <time>2015-04-27T10:08:35Z</time>
      </trkpt>
      <trkpt lat="48.58693" lon="-2.55726">
        <ele>8.31</ele>
        <time>2015-04-27T10:08:36Z</time>
      </trkpt>
      <trkpt lat="48.5868" lon="-2.55743">
        <ele>15.52</ele>
        <time>2015-04-27T10:08:52Z</time>
      </trkpt>
      <trkpt lat="48.58679" lon="-2.55744">
        <ele>9.27</ele>
        <time>2015-04-27T10:08:53Z</time>
      </trkpt>
      <trkpt lat="48.58675" lon="-2.55748">
        <ele>14.56</ele>
        <time>2015-04-27T10:08:57Z</time>
      </trkpt>
      <trkpt lat="48.58674" lon="-2.55749">
        <ele>9.27</ele>
        <time>2015-04-27T10:08:58Z</time>
      </trkpt>
      <trkpt lat="48.58672" lon="-2.5575">
        <ele>7.83</ele>
        <time>2015-04-27T10:09:00Z</time>
      </trkpt>
      <trkpt lat="48.58672" lon="-2.5575">
        <ele>13.12</ele>
        <time>2015-04-27T10:09:01Z</time>
      </trkpt>
      <trkpt lat="48.58671" lon="-2.55751">
        <ele>4.46</ele>
        <time>2015-04-27T10:09:02Z</time>
      </trkpt>
      <trkpt lat="48.58671" lon="-2.55752">
        <ele>11.67</ele>
        <time>2015-04-27T10:09:03Z</time>
      </trkpt>
      <trkpt lat="48.5867" lon="-2.55753">
        <ele>8.31</ele>
        <time>2015-04-27T10:09:05Z</time>
      </trkpt>
      <trkpt lat="48.5867" lon="-2.55754">
        <ele>7.83</ele>
        <time>2015-04-27T10:09:07Z</time>
      </trkpt>
      <trkpt lat="48.5867" lon="-2.55754">
        <ele>-0.82</ele>
        <time>2015-04-27T10:09:40Z</time>
      </trkpt>
      <trkpt lat="48.5867" lon="-2.55754">
        <ele>8.79</ele>
        <time>2015-04-27T10:09:41Z</time>
      </trkpt>
      <trkpt lat="48.5867" lon="-2.55754">
        <ele>8.79</ele>
        <time>2015-04-27T10:09:46Z</time>
      </trkpt>
      <trkpt lat="48.5867" lon="-2.55754">
        <ele>7.83</ele>
        <time>2015-04-27T10:10:05Z</time>
      </trkpt>
      <trkpt lat="48.58665" lon="-2.55751">
        <ele>7.83</ele>
        <time>2015-04-27T10:10:11Z</time>
      </trkpt>
      <trkpt lat="48.58651" lon="-2.5575">
        <ele>8.31</ele>
        <time>2015-04-27T10:10:31Z</time>
      </trkpt>
      <trkpt lat="48.5865" lon="-2.5575">
        <ele>7.83</ele>
        <time>2015-04-27T10:10:32Z</time>
      </trkpt>
      <trkpt lat="48.58646" lon="-2.55749">
        <ele>7.83</ele>
        <time>2015-04-27T10:10:36Z</time>
      </trkpt>
      <trkpt lat="48.58627" lon="-2.55746">
        <ele>8.79</ele>
        <time>2015-04-27T10:10:55Z</time>
      </trkpt>
      <trkpt lat="48.58611" lon="-2.55739">
        <ele>9.75</ele>
        <time>2015-04-27T10:11:12Z</time>
      </trkpt>
      <trkpt lat="48.58597" lon="-2.55739">
        <ele>6.39</ele>
        <time>2015-04-27T10:11:25Z</time>
      </trkpt>
      <trkpt lat="48.58596" lon="-2.55738">
        <ele>10.23</ele>
        <time>2015-04-27T10:11:26Z</time>
      </trkpt>
      <trkpt lat="48.58591" lon="-2.55737">
        <ele>5.91</ele>
        <time>2015-04-27T10:11:32Z</time>
      </trkpt>
      <trkpt lat="48.5859" lon="-2.55737">
        <ele>10.71</ele>
        <time>2015-04-27T10:11:33Z</time>
      </trkpt>
      <trkpt lat="48.58586" lon="-2.55738">
        <ele>10.71</ele>
        <time>2015-04-27T10:11:36Z</time>
      </trkpt>
      <trkpt lat="48.58564" lon="-2.55738">
        <ele>10.71</ele>
        <time>2015-04-27T10:11:55Z</time>
      </trkpt>
      <trkpt lat="48.58551" lon="-2.55741">
        <ele>11.19</ele>
        <time>2015-04-27T10:12:08Z</time>
      </trkpt>
      <trkpt lat="48.58539" lon="-2.55735">
        <ele>11.67</ele>
        <time>2015-04-27T10:12:28Z</time>
      </trkpt>
      <trkpt lat="48.58532" lon="-2.55733">
        <ele>11.67</ele>
        <time>2015-04-27T10:12:42Z</time>
      </trkpt>
      <trkpt lat="48.58511" lon="-2.55723">
        <ele>12.15</ele>
        <time>2015-04-27T10:13:01Z</time>
      </trkpt>
      <trkpt lat="48.58496" lon="-2.55716">
        <ele>12.15</ele>
        <time>2015-04-27T10:13:14Z</time>
      </trkpt>
      <trkpt lat="48.58473" lon="-2.557">
        <ele>12.63</ele>
        <time>2015-04-27T10:13:36Z</time>
      </trkpt>
      <trkpt lat="48.58462" lon="-2.55695">
        <ele>12.63</ele>
        <time>2015-04-27T10:13:48Z</time>
      </trkpt>
      <trkpt lat="48.58459" lon="-2.55695">
        <ele>13.12</ele>
        <time>2015-04-27T10:13:51Z</time>
      </trkpt>
      <trkpt lat="48.58439" lon="-2.55679">
        <ele>13.6</ele>
        <time>2015-04-27T10:14:12Z</time>
      </trkpt>
      <trkpt lat="48.58438" lon="-2.55677">
        <ele>13.6</ele>
        <time>2015-04-27T10:14:14Z</time>
      </trkpt>
      <trkpt lat="48.58421" lon="-2.55659">
        <ele>12.63</ele>
        <time>2015-04-27T10:14:31Z</time>
      </trkpt>
      <trkpt lat="48.58402" lon="-2.55636">
        <ele>10.71</ele>
        <time>2015-04-27T10:14:50Z</time>
      </trkpt>
      <trkpt lat="48.58375" lon="-2.5561">
        <ele>9.75</ele>
        <time>2015-04-27T10:15:15Z</time>
      </trkpt>
      <trkpt lat="48.58355" lon="-2.55591">
        <ele>7.35</ele>
        <time>2015-04-27T10:15:35Z</time>
      </trkpt>
      <trkpt lat="48.58342" lon="-2.55582">
        <ele>7.35</ele>
        <time>2015-04-27T10:15:46Z</time>
      </trkpt>
      <trkpt lat="48.58319" lon="-2.55574">
        <ele>7.35</ele>
        <time>2015-04-27T10:16:05Z</time>
      </trkpt>
      <trkpt lat="48.58317" lon="-2.55573">
        <ele>7.35</ele>
        <time>2015-04-27T10:16:06Z</time>
      </trkpt>
      <trkpt lat="48.58306" lon="-2.55573">
        <ele>7.35</ele>
        <time>2015-04-27T10:16:16Z</time>
      </trkpt>
      <trkpt lat="48.58296" lon="-2.55573">
        <ele>7.35</ele>
        <time>2015-04-27T10:16:24Z</time>
      </trkpt>
      <trkpt lat="48.5828" lon="-2.55571">
        <ele>7.35</ele>
        <time>2015-04-27T10:16:37Z</time>
      </trkpt>
      <trkpt lat="48.58276" lon="-2.55569">
        <ele>7.35</ele>
        <time>2015-04-27T10:16:41Z</time>
      </trkpt>
      <trkpt lat="48.58265" lon="-2.5557">
        <ele>7.35</ele>
        <time>2015-04-27T10:16:59Z</time>
      </trkpt>
      <trkpt lat="48.58256" lon="-2.55574">
        <ele>6.87</ele>
        <time>2015-04-27T10:17:15Z</time>
      </trkpt>
      <trkpt lat="48.58245" lon="-2.55575">
        <ele>7.83</ele>
        <time>2015-04-27T10:17:24Z</time>
      </trkpt>
      <trkpt lat="48.58225" lon="-2.55579">
        <ele>8.31</ele>
        <time>2015-04-27T10:17:42Z</time>
      </trkpt>
      <trkpt lat="48.58215" lon="-2.5558">
        <ele>8.79</ele>
        <time>2015-04-27T10:17:50Z</time>
      </trkpt>
      <trkpt lat="48.58207" lon="-2.5558">
        <ele>8.79</ele>
        <time>2015-04-27T10:17:56Z</time>
      </trkpt>
      <trkpt lat="48.58205" lon="-2.55582">
        <ele>8.79</ele>
        <time>2015-04-27T10:17:59Z</time>
      </trkpt>
      <trkpt lat="48.582" lon="-2.55581">
        <ele>9.27</ele>
        <time>2015-04-27T10:18:03Z</time>
      </trkpt>
      <trkpt lat="48.58174" lon="-2.5558">
        <ele>11.19</ele>
        <time>2015-04-27T10:18:24Z</time>
      </trkpt>
      <trkpt lat="48.58163" lon="-2.55578">
        <ele>11.67</ele>
        <time>2015-04-27T10:18:32Z</time>
      </trkpt>
      <trkpt lat="48.58147" lon="-2.5558">
        <ele>13.12</ele>
        <time>2015-04-27T10:18:49Z</time>
      </trkpt>
      <trkpt lat="48.58128" lon="-2.55574">
        <ele>15.52</ele>
        <time>2015-04-27T10:19:09Z</time>
      </trkpt>
      <trkpt lat="48.58127" lon="-2.55577">
        <ele>15.04</ele>
        <time>2015-04-27T10:19:11Z</time>
      </trkpt>
      <trkpt lat="48.58121" lon="-2.55591">
        <ele>16.48</ele>
        <time>2015-04-27T10:19:25Z</time>
      </trkpt>
      <trkpt lat="48.58117" lon="-2.55593">
        <ele>16.96</ele>
        <time>2015-04-27T10:19:30Z</time>
      </trkpt>
      <trkpt lat="48.5811" lon="-2.55597">
        <ele>16.96</ele>
        <time>2015-04-27T10:19:45Z</time>
      </trkpt>
      <trkpt lat="48.58098" lon="-2.55594">
        <ele>16.96</ele>
        <time>2015-04-27T10:20:01Z</time>
      </trkpt>
      <trkpt lat="48.58093" lon="-2.55596">
        <ele>16.48</ele>
        <time>2015-04-27T10:20:20Z</time>
      </trkpt>
      <trkpt lat="48.58086" lon="-2.55603">
        <ele>16</ele>
        <time>2015-04-27T10:20:27Z</time>
      </trkpt>
      <trkpt lat="48.58082" lon="-2.55615">
        <ele>16.48</ele>
        <time>2015-04-27T10:20:35Z</time>
      </trkpt>
      <trkpt lat="48.58079" lon="-2.55626">
        <ele>16</ele>
        <time>2015-04-27T10:20:42Z</time>
      </trkpt>
      <trkpt lat="48.58077" lon="-2.55633">
        <ele>16</ele>
        <time>2015-04-27T10:20:46Z</time>
      </trkpt>
      <trkpt lat="48.58067" lon="-2.55663">
        <ele>14.56</ele>
        <time>2015-04-27T10:21:05Z</time>
      </trkpt>
      <trkpt lat="48.58064" lon="-2.55672">
        <ele>7.35</ele>
        <time>2015-04-27T10:21:10Z</time>
      </trkpt>
      <trkpt lat="48.58063" lon="-2.55674">
        <ele>16.48</ele>
        <time>2015-04-27T10:21:11Z</time>
      </trkpt>
      <trkpt lat="48.58061" lon="-2.55681">
        <ele>14.08</ele>
        <time>2015-04-27T10:21:15Z</time>
      </trkpt>
      <trkpt lat="48.5806" lon="-2.55684">
        <ele>14.08</ele>
        <time>2015-04-27T10:21:17Z</time>
      </trkpt>
      <trkpt lat="48.58054" lon="-2.55698">
        <ele>10.71</ele>
        <time>2015-04-27T10:21:27Z</time>
      </trkpt>
      <trkpt lat="48.58053" lon="-2.557">
        <ele>14.56</ele>
        <time>2015-04-27T10:21:29Z</time>
      </trkpt>
      <trkpt lat="48.5804" lon="-2.55733">
        <ele>12.63</ele>
        <time>2015-04-27T10:21:50Z</time>
      </trkpt>
      <trkpt lat="48.58028" lon="-2.55759">
        <ele>12.15</ele>
        <time>2015-04-27T10:22:08Z</time>
      </trkpt>
      <trkpt lat="48.58026" lon="-2.55769">
        <ele>11.19</ele>
        <time>2015-04-27T10:22:14Z</time>
      </trkpt>
      <trkpt lat="48.58016" lon="-2.55802">
        <ele>11.19</ele>
        <time>2015-04-27T10:22:34Z</time>
      </trkpt>
      <trkpt lat="48.58015" lon="-2.55809">
        <ele>10.71</ele>
        <time>2015-04-27T10:22:56Z</time>
      </trkpt>
      <trkpt lat="48.58005" lon="-2.55831">
        <ele>10.23</ele>
        <time>2015-04-27T10:23:14Z</time>
      </trkpt>
      <trkpt lat="48.58" lon="-2.55859">
        <ele>9.75</ele>
        <time>2015-04-27T10:23:34Z</time>
      </trkpt>
      <trkpt lat="48.57995" lon="-2.55878">
        <ele>9.27</ele>
        <time>2015-04-27T10:23:46Z</time>
      </trkpt>
      <trkpt lat="48.57994" lon="-2.5588">
        <ele>8.79</ele>
        <time>2015-04-27T10:23:48Z</time>
      </trkpt>
      <trkpt lat="48.57992" lon="-2.55881">
        <ele>9.27</ele>
        <time>2015-04-27T10:23:50Z</time>
      </trkpt>
      <trkpt lat="48.5798" lon="-2.55883">
        <ele>7.83</ele>
        <time>2015-04-27T10:24:03Z</time>
      </trkpt>
      <trkpt lat="48.57975" lon="-2.55883">
        <ele>7.35</ele>
        <time>2015-04-27T10:24:08Z</time>
      </trkpt>
      <trkpt lat="48.57958" lon="-2.5587">
        <ele>6.39</ele>
        <time>2015-04-27T10:24:26Z</time>
      </trkpt>
      <trkpt lat="48.57955" lon="-2.55865">
        <ele>5.91</ele>
        <time>2015-04-27T10:24:30Z</time>
      </trkpt>
      <trkpt lat="48.57944" lon="-2.55846">
        <ele>5.91</ele>
        <time>2015-04-27T10:24:47Z</time>
      </trkpt>
      <trkpt lat="48.57934" lon="-2.55832">
        <ele>5.91</ele>
        <time>2015-04-27T10:24:59Z</time>
      </trkpt>
      <trkpt lat="48.57928" lon="-2.55824">
        <ele>8.31</ele>
        <time>2015-04-27T10:25:06Z</time>
      </trkpt>
      <trkpt lat="48.57925" lon="-2.55821">
        <ele>5.91</ele>
        <time>2015-04-27T10:25:09Z</time>
      </trkpt>
      <trkpt lat="48.57918" lon="-2.5582">
        <ele>6.39</ele>
        <time>2015-04-27T10:25:15Z</time>
      </trkpt>
      <trkpt lat="48.57913" lon="-2.5583">
        <ele>6.87</ele>
        <time>2015-04-27T10:25:23Z</time>
      </trkpt>
      <trkpt lat="48.57912" lon="-2.55835">
        <ele>6.39</ele>
        <time>2015-04-27T10:25:26Z</time>
      </trkpt>
      <trkpt lat="48.57915" lon="-2.5586">
        <ele>5.91</ele>
        <time>2015-04-27T10:25:47Z</time>
      </trkpt>
      <trkpt lat="48.57911" lon="-2.55896">
        <ele>6.39</ele>
        <time>2015-04-27T10:26:07Z</time>
      </trkpt>
      <trkpt lat="48.57911" lon="-2.55899">
        <ele>6.39</ele>
        <time>2015-04-27T10:26:09Z</time>
      </trkpt>
      <trkpt lat="48.57909" lon="-2.55922">
        <ele>5.91</ele>
        <time>2015-04-27T10:26:29Z</time>
      </trkpt>
      <trkpt lat="48.57906" lon="-2.55933">
        <ele>5.91</ele>
        <time>2015-04-27T10:26:41Z</time>
      </trkpt>
      <trkpt lat="48.57906" lon="-2.5595">
        <ele>5.91</ele>
        <time>2015-04-27T10:27:01Z</time>
      </trkpt>
      <trkpt lat="48.57905" lon="-2.55953">
        <ele>5.91</ele>
        <time>2015-04-27T10:27:04Z</time>
      </trkpt>
      <trkpt lat="48.57901" lon="-2.55967">
        <ele>6.39</ele>
        <time>2015-04-27T10:27:13Z</time>
      </trkpt>
      <trkpt lat="48.57884" lon="-2.55998">
        <ele>6.87</ele>
        <time>2015-04-27T10:27:35Z</time>
      </trkpt>
      <trkpt lat="48.57875" lon="-2.56021">
        <ele>7.35</ele>
        <time>2015-04-27T10:27:49Z</time>
      </trkpt>
      <trkpt lat="48.57871" lon="-2.56036">
        <ele>7.83</ele>
        <time>2015-04-27T10:27:58Z</time>
      </trkpt>
      <trkpt lat="48.57863" lon="-2.56066">
        <ele>8.79</ele>
        <time>2015-04-27T10:28:19Z</time>
      </trkpt>
      <trkpt lat="48.57853" lon="-2.56093">
        <ele>9.75</ele>
        <time>2015-04-27T10:28:39Z</time>
      </trkpt>
      <trkpt lat="48.57851" lon="-2.561">
        <ele>10.71</ele>
        <time>2015-04-27T10:28:44Z</time>
      </trkpt>
      <trkpt lat="48.5784" lon="-2.56119">
        <ele>7.83</ele>
        <time>2015-04-27T10:29:03Z</time>
      </trkpt>
      <trkpt lat="48.57839" lon="-2.5612">
        <ele>12.63</ele>
        <time>2015-04-27T10:29:04Z</time>
      </trkpt>
      <trkpt lat="48.57824" lon="-2.56135">
        <ele>14.08</ele>
        <time>2015-04-27T10:29:24Z</time>
      </trkpt>
      <trkpt lat="48.57806" lon="-2.56158">
        <ele>15.04</ele>
        <time>2015-04-27T10:29:43Z</time>
      </trkpt>
      <trkpt lat="48.57794" lon="-2.56167">
        <ele>16</ele>
        <time>2015-04-27T10:29:55Z</time>
      </trkpt>
      <trkpt lat="48.57783" lon="-2.56176">
        <ele>16.48</ele>
        <time>2015-04-27T10:30:15Z</time>
      </trkpt>
      <trkpt lat="48.57779" lon="-2.56181">
        <ele>16.48</ele>
        <time>2015-04-27T10:30:41Z</time>
      </trkpt>
      <trkpt lat="48.57772" lon="-2.56184">
        <ele>16.48</ele>
        <time>2015-04-27T10:30:47Z</time>
      </trkpt>
      <trkpt lat="48.57765" lon="-2.56187">
        <ele>16</ele>
        <time>2015-04-27T10:30:54Z</time>
      </trkpt>
      <trkpt lat="48.57762" lon="-2.56189">
        <ele>16</ele>
        <time>2015-04-27T10:30:58Z</time>
      </trkpt>
      <trkpt lat="48.57741" lon="-2.56202">
        <ele>15.04</ele>
        <time>2015-04-27T10:31:19Z</time>
      </trkpt>
      <trkpt lat="48.57737" lon="-2.56205">
        <ele>15.04</ele>
        <time>2015-04-27T10:31:23Z</time>
      </trkpt>
      <trkpt lat="48.57731" lon="-2.56212">
        <ele>14.08</ele>
        <time>2015-04-27T10:31:29Z</time>
      </trkpt>
      <trkpt lat="48.57727" lon="-2.56214">
        <ele>14.08</ele>
        <time>2015-04-27T10:31:33Z</time>
      </trkpt>
      <trkpt lat="48.57721" lon="-2.56221">
        <ele>13.12</ele>
        <time>2015-04-27T10:31:40Z</time>
      </trkpt>
      <trkpt lat="48.57714" lon="-2.56224">
        <ele>13.6</ele>
        <time>2015-04-27T10:31:46Z</time>
      </trkpt>
      <trkpt lat="48.57695" lon="-2.56243">
        <ele>12.63</ele>
        <time>2015-04-27T10:32:07Z</time>
      </trkpt>
      <trkpt lat="48.57692" lon="-2.56248">
        <ele>12.63</ele>
        <time>2015-04-27T10:32:11Z</time>
      </trkpt>
      <trkpt lat="48.57699" lon="-2.5626">
        <ele>12.63</ele>
        <time>2015-04-27T10:32:25Z</time>
      </trkpt>
      <trkpt lat="48.57693" lon="-2.56267">
        <ele>11.67</ele>
        <time>2015-04-27T10:32:33Z</time>
      </trkpt>
      <trkpt lat="48.57684" lon="-2.56268">
        <ele>11.67</ele>
        <time>2015-04-27T10:32:41Z</time>
      </trkpt>
      <trkpt lat="48.57676" lon="-2.56275">
        <ele>10.23</ele>
        <time>2015-04-27T10:32:50Z</time>
      </trkpt>
      <trkpt lat="48.57669" lon="-2.56283">
        <ele>9.27</ele>
        <time>2015-04-27T10:32:58Z</time>
      </trkpt>
      <trkpt lat="48.57666" lon="-2.56288">
        <ele>8.79</ele>
        <time>2015-04-27T10:33:02Z</time>
      </trkpt>
      <trkpt lat="48.57662" lon="-2.56295">
        <ele>8.79</ele>
        <time>2015-04-27T10:33:07Z</time>
      </trkpt>
      <trkpt lat="48.57655" lon="-2.5631">
        <ele>7.83</ele>
        <time>2015-04-27T10:33:19Z</time>
      </trkpt>
      <trkpt lat="48.57642" lon="-2.56331">
        <ele>6.87</ele>
        <time>2015-04-27T10:33:36Z</time>
      </trkpt>
      <trkpt lat="48.57643" lon="-2.56335">
        <ele>6.87</ele>
        <time>2015-04-27T10:33:39Z</time>
      </trkpt>
      <trkpt lat="48.57634" lon="-2.56367">
        <ele>7.35</ele>
        <time>2015-04-27T10:34:01Z</time>
      </trkpt>
      <trkpt lat="48.57632" lon="-2.56368">
        <ele>7.35</ele>
        <time>2015-04-27T10:34:03Z</time>
      </trkpt>
      <trkpt lat="48.5762" lon="-2.56365">
        <ele>6.87</ele>
        <time>2015-04-27T10:34:21Z</time>
      </trkpt>
      <trkpt lat="48.57608" lon="-2.5637">
        <ele>7.35</ele>
        <time>2015-04-27T10:34:37Z</time>
      </trkpt>
      <trkpt lat="48.57604" lon="-2.56378">
        <ele>7.35</ele>
        <time>2015-04-27T10:34:44Z</time>
      </trkpt>
      <trkpt lat="48.57598" lon="-2.56398">
        <ele>7.35</ele>
        <time>2015-04-27T10:34:58Z</time>
      </trkpt>
      <trkpt lat="48.57592" lon="-2.56427">
        <ele>7.83</ele>
        <time>2015-04-27T10:35:17Z</time>
      </trkpt>
      <trkpt lat="48.57589" lon="-2.56437">
        <ele>7.83</ele>
        <time>2015-04-27T10:35:24Z</time>
      </trkpt>
      <trkpt lat="48.57588" lon="-2.56444">
        <ele>8.31</ele>
        <time>2015-04-27T10:35:28Z</time>
      </trkpt>
      <trkpt lat="48.57584" lon="-2.56458">
        <ele>8.31</ele>
        <time>2015-04-27T10:35:37Z</time>
      </trkpt>
      <trkpt lat="48.57584" lon="-2.56461">
        <ele>8.31</ele>
        <time>2015-04-27T10:35:39Z</time>
      </trkpt>
      <trkpt lat="48.5758" lon="-2.56473">
        <ele>8.31</ele>
        <time>2015-04-27T10:35:48Z</time>
      </trkpt>
      <trkpt lat="48.5758" lon="-2.56478">
        <ele>7.83</ele>
        <time>2015-04-27T10:35:51Z</time>
      </trkpt>
      <trkpt lat="48.57576" lon="-2.56501">
        <ele>8.31</ele>
        <time>2015-04-27T10:36:08Z</time>
      </trkpt>
      <trkpt lat="48.57571" lon="-2.56512">
        <ele>8.31</ele>
        <time>2015-04-27T10:36:20Z</time>
      </trkpt>
      <trkpt lat="48.57562" lon="-2.5655">
        <ele>7.83</ele>
        <time>2015-04-27T10:36:42Z</time>
      </trkpt>
      <trkpt lat="48.57555" lon="-2.56587">
        <ele>6.39</ele>
        <time>2015-04-27T10:37:03Z</time>
      </trkpt>
      <trkpt lat="48.57552" lon="-2.56597">
        <ele>6.87</ele>
        <time>2015-04-27T10:37:09Z</time>
      </trkpt>
      <trkpt lat="48.57554" lon="-2.5661">
        <ele>7.35</ele>
        <time>2015-04-27T10:37:16Z</time>
      </trkpt>
      <trkpt lat="48.57556" lon="-2.5662">
        <ele>6.87</ele>
        <time>2015-04-27T10:37:22Z</time>
      </trkpt>
      <trkpt lat="48.57565" lon="-2.56652">
        <ele>6.39</ele>
        <time>2015-04-27T10:37:43Z</time>
      </trkpt>
      <trkpt lat="48.57564" lon="-2.56652">
        <ele>6.87</ele>
        <time>2015-04-27T10:37:44Z</time>
      </trkpt>
      <trkpt lat="48.57553" lon="-2.56661">
        <ele>6.87</ele>
        <time>2015-04-27T10:37:55Z</time>
      </trkpt>
      <trkpt lat="48.5755" lon="-2.56666">
        <ele>6.39</ele>
        <time>2015-04-27T10:37:59Z</time>
      </trkpt>
      <trkpt lat="48.57533" lon="-2.56679">
        <ele>6.39</ele>
        <time>2015-04-27T10:38:16Z</time>
      </trkpt>
      <trkpt lat="48.57522" lon="-2.56667">
        <ele>6.39</ele>
        <time>2015-04-27T10:38:34Z</time>
      </trkpt>
      <trkpt lat="48.57522" lon="-2.56666">
        <ele>5.91</ele>
        <time>2015-04-27T10:39:09Z</time>
      </trkpt>
      <trkpt lat="48.57522" lon="-2.56673">
        <ele>5.91</ele>
        <time>2015-04-27T10:39:36Z</time>
      </trkpt>
      <trkpt lat="48.57521" lon="-2.56676">
        <ele>6.39</ele>
        <time>2015-04-27T10:39:38Z</time>
      </trkpt>
      <trkpt lat="48.57513" lon="-2.5669">
        <ele>5.91</ele>
        <time>2015-04-27T10:39:49Z</time>
      </trkpt>
      <trkpt lat="48.57507" lon="-2.56701">
        <ele>4.94</ele>
        <time>2015-04-27T10:40:04Z</time>
      </trkpt>
    </trkseg>
  </trk>
</gpx>